<?xml version="1.0" encoding="UTF-8" standalone="no" ?>
<gpx xmlns="http://www.topografix.com/GPX/1/1" xmlns:xsi="http://www.w3.org/2001/XMLSchema-instance" xsi:schemaLocation="http://www.topografix.com/GPX/1/1 http://www.topografix.com/GPX/1/1/gpx.xsd" version="1.1" creator="VisuGPX - https://www.visugpx.com">
  <metadata>
    <name>La Ramee - 10 km </name>
    <desc><![CDATA[Tour du lac la Ramee]]></desc>
  </metadata>
  <trk>
    <name><![CDATA[Tournefeuille Course à pied]]></name>
    <desc><![CDATA[Reprise apres blessure a la malleole externe du pied droit]]></desc>
    <trkseg>
      <trkpt lat="43.57894" lon="1.37849">
        <ele>158</ele>
        <time>2015-01-22T11:15:26.000Z</time>
      </trkpt>
      <trkpt lat="43.57884" lon="1.37854">
        <ele>158.19999694824</ele>
        <time>2015-01-22T11:15:31.000Z</time>
      </trkpt>
      <trkpt lat="43.57869" lon="1.37863">
        <ele>158.19999694824</ele>
        <time>2015-01-22T11:15:37.000Z</time>
      </trkpt>
      <trkpt lat="43.5785" lon="1.37874">
        <ele>158.39999389648</ele>
        <time>2015-01-22T11:15:43.000Z</time>
      </trkpt>
      <trkpt lat="43.57844" lon="1.37889">
        <ele>158.39999389648</ele>
        <time>2015-01-22T11:15:47.000Z</time>
      </trkpt>
      <trkpt lat="43.57839" lon="1.37906">
        <ele>158</ele>
        <time>2015-01-22T11:15:52.000Z</time>
      </trkpt>
      <trkpt lat="43.57826" lon="1.37916">
        <ele>157.80000305176</ele>
        <time>2015-01-22T11:15:56.000Z</time>
      </trkpt>
      <trkpt lat="43.57812" lon="1.37919">
        <ele>157.80000305176</ele>
        <time>2015-01-22T11:16:00.000Z</time>
      </trkpt>
      <trkpt lat="43.57794" lon="1.37922">
        <ele>157.80000305176</ele>
        <time>2015-01-22T11:16:05.000Z</time>
      </trkpt>
      <trkpt lat="43.57777" lon="1.37928">
        <ele>157.60000610352</ele>
        <time>2015-01-22T11:16:10.000Z</time>
      </trkpt>
      <trkpt lat="43.57764" lon="1.37933">
        <ele>157.60000610352</ele>
        <time>2015-01-22T11:16:16.000Z</time>
      </trkpt>
      <trkpt lat="43.57753" lon="1.37937">
        <ele>157.39999389648</ele>
        <time>2015-01-22T11:16:20.000Z</time>
      </trkpt>
      <trkpt lat="43.57738" lon="1.37945">
        <ele>157</ele>
        <time>2015-01-22T11:16:25.000Z</time>
      </trkpt>
      <trkpt lat="43.57721" lon="1.37958">
        <ele>156.80000305176</ele>
        <time>2015-01-22T11:16:32.000Z</time>
      </trkpt>
      <trkpt lat="43.57705" lon="1.37969">
        <ele>156.39999389648</ele>
        <time>2015-01-22T11:16:38.000Z</time>
      </trkpt>
      <trkpt lat="43.57692" lon="1.37978">
        <ele>156.19999694824</ele>
        <time>2015-01-22T11:16:43.000Z</time>
      </trkpt>
      <trkpt lat="43.57677" lon="1.37988">
        <ele>156.39999389648</ele>
        <time>2015-01-22T11:16:49.000Z</time>
      </trkpt>
      <trkpt lat="43.5766" lon="1.37999">
        <ele>157.39999389648</ele>
        <time>2015-01-22T11:16:55.000Z</time>
      </trkpt>
      <trkpt lat="43.57656" lon="1.38002">
        <ele>157.60000610352</ele>
        <time>2015-01-22T11:16:56.000Z</time>
      </trkpt>
      <trkpt lat="43.57642" lon="1.38011">
        <ele>158.39999389648</ele>
        <time>2015-01-22T11:17:01.000Z</time>
      </trkpt>
      <trkpt lat="43.57627" lon="1.38021">
        <ele>159.39999389648</ele>
        <time>2015-01-22T11:17:07.000Z</time>
      </trkpt>
      <trkpt lat="43.57613" lon="1.38032">
        <ele>160.60000610352</ele>
        <time>2015-01-22T11:17:13.000Z</time>
      </trkpt>
      <trkpt lat="43.57602" lon="1.38041">
        <ele>161.39999389648</ele>
        <time>2015-01-22T11:17:18.000Z</time>
      </trkpt>
      <trkpt lat="43.5759" lon="1.38049">
        <ele>161.19999694824</ele>
        <time>2015-01-22T11:17:23.000Z</time>
      </trkpt>
      <trkpt lat="43.57576" lon="1.38061">
        <ele>161.19999694824</ele>
        <time>2015-01-22T11:17:29.000Z</time>
      </trkpt>
      <trkpt lat="43.57559" lon="1.38072">
        <ele>160.80000305176</ele>
        <time>2015-01-22T11:17:35.000Z</time>
      </trkpt>
      <trkpt lat="43.57557" lon="1.38074">
        <ele>160.80000305176</ele>
        <time>2015-01-22T11:17:36.000Z</time>
      </trkpt>
      <trkpt lat="43.57541" lon="1.38086">
        <ele>160</ele>
        <time>2015-01-22T11:17:42.000Z</time>
      </trkpt>
      <trkpt lat="43.57537" lon="1.38088">
        <ele>160</ele>
        <time>2015-01-22T11:17:43.000Z</time>
      </trkpt>
      <trkpt lat="43.57525" lon="1.38105">
        <ele>159.60000610352</ele>
        <time>2015-01-22T11:17:49.000Z</time>
      </trkpt>
      <trkpt lat="43.57513" lon="1.38113">
        <ele>159.19999694824</ele>
        <time>2015-01-22T11:17:53.000Z</time>
      </trkpt>
      <trkpt lat="43.57498" lon="1.38114">
        <ele>158.39999389648</ele>
        <time>2015-01-22T11:17:58.000Z</time>
      </trkpt>
      <trkpt lat="43.57481" lon="1.38123">
        <ele>158.19999694824</ele>
        <time>2015-01-22T11:18:04.000Z</time>
      </trkpt>
      <trkpt lat="43.57464" lon="1.38133">
        <ele>158.39999389648</ele>
        <time>2015-01-22T11:18:10.000Z</time>
      </trkpt>
      <trkpt lat="43.57462" lon="1.38135">
        <ele>158.60000610352</ele>
        <time>2015-01-22T11:18:11.000Z</time>
      </trkpt>
      <trkpt lat="43.57448" lon="1.38145">
        <ele>158.80000305176</ele>
        <time>2015-01-22T11:18:16.000Z</time>
      </trkpt>
      <trkpt lat="43.57431" lon="1.38156">
        <ele>158.60000610352</ele>
        <time>2015-01-22T11:18:22.000Z</time>
      </trkpt>
      <trkpt lat="43.57429" lon="1.38158">
        <ele>158.60000610352</ele>
        <time>2015-01-22T11:18:23.000Z</time>
      </trkpt>
      <trkpt lat="43.57416" lon="1.38169">
        <ele>157.80000305176</ele>
        <time>2015-01-22T11:18:28.000Z</time>
      </trkpt>
      <trkpt lat="43.574" lon="1.38182">
        <ele>157</ele>
        <time>2015-01-22T11:18:34.000Z</time>
      </trkpt>
      <trkpt lat="43.57383" lon="1.38198">
        <ele>156.80000305176</ele>
        <time>2015-01-22T11:18:40.000Z</time>
      </trkpt>
      <trkpt lat="43.57366" lon="1.38208">
        <ele>157.19999694824</ele>
        <time>2015-01-22T11:18:46.000Z</time>
      </trkpt>
      <trkpt lat="43.57364" lon="1.3821">
        <ele>157.39999389648</ele>
        <time>2015-01-22T11:18:47.000Z</time>
      </trkpt>
      <trkpt lat="43.57354" lon="1.38216">
        <ele>157.60000610352</ele>
        <time>2015-01-22T11:18:51.000Z</time>
      </trkpt>
      <trkpt lat="43.57352" lon="1.38215">
        <ele>157.60000610352</ele>
        <time>2015-01-22T11:18:52.000Z</time>
      </trkpt>
      <trkpt lat="43.57348" lon="1.38213">
        <ele>157.80000305176</ele>
        <time>2015-01-22T11:18:56.000Z</time>
      </trkpt>
      <trkpt lat="43.57347" lon="1.38214">
        <ele>157.80000305176</ele>
        <time>2015-01-22T11:19:01.000Z</time>
      </trkpt>
      <trkpt lat="43.57347" lon="1.38209">
        <ele>157.80000305176</ele>
        <time>2015-01-22T11:19:06.000Z</time>
      </trkpt>
      <trkpt lat="43.57344" lon="1.382">
        <ele>157.60000610352</ele>
        <time>2015-01-22T11:19:08.000Z</time>
      </trkpt>
      <trkpt lat="43.57343" lon="1.38191">
        <ele>157.60000610352</ele>
        <time>2015-01-22T11:19:10.000Z</time>
      </trkpt>
      <trkpt lat="43.57336" lon="1.38183">
        <ele>157.80000305176</ele>
        <time>2015-01-22T11:19:13.000Z</time>
      </trkpt>
      <trkpt lat="43.57333" lon="1.38181">
        <ele>157.80000305176</ele>
        <time>2015-01-22T11:19:14.000Z</time>
      </trkpt>
      <trkpt lat="43.57314" lon="1.38169">
        <ele>158.80000305176</ele>
        <time>2015-01-22T11:19:21.000Z</time>
      </trkpt>
      <trkpt lat="43.57299" lon="1.38156">
        <ele>159.39999389648</ele>
        <time>2015-01-22T11:19:27.000Z</time>
      </trkpt>
      <trkpt lat="43.57289" lon="1.38137">
        <ele>160</ele>
        <time>2015-01-22T11:19:33.000Z</time>
      </trkpt>
      <trkpt lat="43.57278" lon="1.38115">
        <ele>161.19999694824</ele>
        <time>2015-01-22T11:19:39.000Z</time>
      </trkpt>
      <trkpt lat="43.57263" lon="1.38102">
        <ele>162</ele>
        <time>2015-01-22T11:19:45.000Z</time>
      </trkpt>
      <trkpt lat="43.5725" lon="1.38092">
        <ele>161.80000305176</ele>
        <time>2015-01-22T11:19:50.000Z</time>
      </trkpt>
      <trkpt lat="43.57233" lon="1.38082">
        <ele>161.80000305176</ele>
        <time>2015-01-22T11:19:56.000Z</time>
      </trkpt>
      <trkpt lat="43.57216" lon="1.38072">
        <ele>161.60000610352</ele>
        <time>2015-01-22T11:20:02.000Z</time>
      </trkpt>
      <trkpt lat="43.57202" lon="1.38062">
        <ele>161.39999389648</ele>
        <time>2015-01-22T11:20:07.000Z</time>
      </trkpt>
      <trkpt lat="43.57187" lon="1.38049">
        <ele>161</ele>
        <time>2015-01-22T11:20:13.000Z</time>
      </trkpt>
      <trkpt lat="43.57184" lon="1.38046">
        <ele>161</ele>
        <time>2015-01-22T11:20:14.000Z</time>
      </trkpt>
      <trkpt lat="43.5717" lon="1.38032">
        <ele>160.80000305176</ele>
        <time>2015-01-22T11:20:20.000Z</time>
      </trkpt>
      <trkpt lat="43.57162" lon="1.38015">
        <ele>160.80000305176</ele>
        <time>2015-01-22T11:20:25.000Z</time>
      </trkpt>
      <trkpt lat="43.57155" lon="1.37995">
        <ele>160.60000610352</ele>
        <time>2015-01-22T11:20:31.000Z</time>
      </trkpt>
      <trkpt lat="43.5715" lon="1.37981">
        <ele>160.60000610352</ele>
        <time>2015-01-22T11:20:35.000Z</time>
      </trkpt>
      <trkpt lat="43.57148" lon="1.37979">
        <ele>160.60000610352</ele>
        <time>2015-01-22T11:20:36.000Z</time>
      </trkpt>
      <trkpt lat="43.57141" lon="1.37966">
        <ele>160.39999389648</ele>
        <time>2015-01-22T11:20:40.000Z</time>
      </trkpt>
      <trkpt lat="43.57138" lon="1.37949">
        <ele>160.39999389648</ele>
        <time>2015-01-22T11:20:45.000Z</time>
      </trkpt>
      <trkpt lat="43.57137" lon="1.37921">
        <ele>160.60000610352</ele>
        <time>2015-01-22T11:20:52.000Z</time>
      </trkpt>
      <trkpt lat="43.57132" lon="1.37902">
        <ele>160.60000610352</ele>
        <time>2015-01-22T11:20:57.000Z</time>
      </trkpt>
      <trkpt lat="43.57128" lon="1.37883">
        <ele>160.39999389648</ele>
        <time>2015-01-22T11:21:02.000Z</time>
      </trkpt>
      <trkpt lat="43.57124" lon="1.37858">
        <ele>160</ele>
        <time>2015-01-22T11:21:08.000Z</time>
      </trkpt>
      <trkpt lat="43.57123" lon="1.37855">
        <ele>160</ele>
        <time>2015-01-22T11:21:09.000Z</time>
      </trkpt>
      <trkpt lat="43.5712" lon="1.37835">
        <ele>159.80000305176</ele>
        <time>2015-01-22T11:21:14.000Z</time>
      </trkpt>
      <trkpt lat="43.57119" lon="1.37812">
        <ele>159.19999694824</ele>
        <time>2015-01-22T11:21:20.000Z</time>
      </trkpt>
      <trkpt lat="43.57121" lon="1.37789">
        <ele>159</ele>
        <time>2015-01-22T11:21:26.000Z</time>
      </trkpt>
      <trkpt lat="43.57114" lon="1.37768">
        <ele>158.60000610352</ele>
        <time>2015-01-22T11:21:32.000Z</time>
      </trkpt>
      <trkpt lat="43.57114" lon="1.37747">
        <ele>158.39999389648</ele>
        <time>2015-01-22T11:21:37.000Z</time>
      </trkpt>
      <trkpt lat="43.57116" lon="1.3772">
        <ele>158</ele>
        <time>2015-01-22T11:21:44.000Z</time>
      </trkpt>
      <trkpt lat="43.5711" lon="1.37704">
        <ele>158.19999694824</ele>
        <time>2015-01-22T11:21:49.000Z</time>
      </trkpt>
      <trkpt lat="43.57096" lon="1.37689">
        <ele>158.80000305176</ele>
        <time>2015-01-22T11:21:55.000Z</time>
      </trkpt>
      <trkpt lat="43.57084" lon="1.37666">
        <ele>159.60000610352</ele>
        <time>2015-01-22T11:22:02.000Z</time>
      </trkpt>
      <trkpt lat="43.57078" lon="1.37649">
        <ele>160.19999694824</ele>
        <time>2015-01-22T11:22:07.000Z</time>
      </trkpt>
      <trkpt lat="43.57067" lon="1.37626">
        <ele>160.39999389648</ele>
        <time>2015-01-22T11:22:15.000Z</time>
      </trkpt>
      <trkpt lat="43.57055" lon="1.37605">
        <ele>160.60000610352</ele>
        <time>2015-01-22T11:22:22.000Z</time>
      </trkpt>
      <trkpt lat="43.57053" lon="1.37602">
        <ele>160.80000305176</ele>
        <time>2015-01-22T11:22:23.000Z</time>
      </trkpt>
      <trkpt lat="43.57043" lon="1.37588">
        <ele>161.19999694824</ele>
        <time>2015-01-22T11:22:28.000Z</time>
      </trkpt>
      <trkpt lat="43.57034" lon="1.37574">
        <ele>161.60000610352</ele>
        <time>2015-01-22T11:22:33.000Z</time>
      </trkpt>
      <trkpt lat="43.57023" lon="1.37562">
        <ele>161.80000305176</ele>
        <time>2015-01-22T11:22:38.000Z</time>
      </trkpt>
      <trkpt lat="43.57011" lon="1.37546">
        <ele>161</ele>
        <time>2015-01-22T11:22:44.000Z</time>
      </trkpt>
      <trkpt lat="43.56996" lon="1.37526">
        <ele>160</ele>
        <time>2015-01-22T11:22:51.000Z</time>
      </trkpt>
      <trkpt lat="43.56989" lon="1.37518">
        <ele>159.60000610352</ele>
        <time>2015-01-22T11:22:55.000Z</time>
      </trkpt>
      <trkpt lat="43.56988" lon="1.3752">
        <ele>159.60000610352</ele>
        <time>2015-01-22T11:22:56.000Z</time>
      </trkpt>
      <trkpt lat="43.56972" lon="1.37519">
        <ele>159.80000305176</ele>
        <time>2015-01-22T11:23:00.000Z</time>
      </trkpt>
      <trkpt lat="43.56964" lon="1.37514">
        <ele>159.39999389648</ele>
        <time>2015-01-22T11:23:03.000Z</time>
      </trkpt>
      <trkpt lat="43.56953" lon="1.37509">
        <ele>159.19999694824</ele>
        <time>2015-01-22T11:23:07.000Z</time>
      </trkpt>
      <trkpt lat="43.5694" lon="1.37504">
        <ele>158.60000610352</ele>
        <time>2015-01-22T11:23:12.000Z</time>
      </trkpt>
      <trkpt lat="43.56926" lon="1.37493">
        <ele>158.19999694824</ele>
        <time>2015-01-22T11:23:18.000Z</time>
      </trkpt>
      <trkpt lat="43.56918" lon="1.37477">
        <ele>157.80000305176</ele>
        <time>2015-01-22T11:23:23.000Z</time>
      </trkpt>
      <trkpt lat="43.56915" lon="1.37449">
        <ele>157.19999694824</ele>
        <time>2015-01-22T11:23:30.000Z</time>
      </trkpt>
      <trkpt lat="43.56912" lon="1.37425">
        <ele>156.60000610352</ele>
        <time>2015-01-22T11:23:36.000Z</time>
      </trkpt>
      <trkpt lat="43.56909" lon="1.37405">
        <ele>156.19999694824</ele>
        <time>2015-01-22T11:23:41.000Z</time>
      </trkpt>
      <trkpt lat="43.56904" lon="1.37386">
        <ele>156.19999694824</ele>
        <time>2015-01-22T11:23:46.000Z</time>
      </trkpt>
      <trkpt lat="43.569" lon="1.37374">
        <ele>156.60000610352</ele>
        <time>2015-01-22T11:23:50.000Z</time>
      </trkpt>
      <trkpt lat="43.56894" lon="1.37353">
        <ele>157</ele>
        <time>2015-01-22T11:23:57.000Z</time>
      </trkpt>
      <trkpt lat="43.56897" lon="1.37338">
        <ele>157.39999389648</ele>
        <time>2015-01-22T11:24:02.000Z</time>
      </trkpt>
      <trkpt lat="43.56911" lon="1.37324">
        <ele>157.80000305176</ele>
        <time>2015-01-22T11:24:09.000Z</time>
      </trkpt>
      <trkpt lat="43.56921" lon="1.3731">
        <ele>158</ele>
        <time>2015-01-22T11:24:15.000Z</time>
      </trkpt>
      <trkpt lat="43.5693" lon="1.37289">
        <ele>158</ele>
        <time>2015-01-22T11:24:22.000Z</time>
      </trkpt>
      <trkpt lat="43.56939" lon="1.37267">
        <ele>158.19999694824</ele>
        <time>2015-01-22T11:24:29.000Z</time>
      </trkpt>
      <trkpt lat="43.56952" lon="1.3725">
        <ele>158.60000610352</ele>
        <time>2015-01-22T11:24:35.000Z</time>
      </trkpt>
      <trkpt lat="43.56964" lon="1.37241">
        <ele>158.80000305176</ele>
        <time>2015-01-22T11:24:40.000Z</time>
      </trkpt>
      <trkpt lat="43.56982" lon="1.37231">
        <ele>159.19999694824</ele>
        <time>2015-01-22T11:24:47.000Z</time>
      </trkpt>
      <trkpt lat="43.56996" lon="1.37224">
        <ele>159.80000305176</ele>
        <time>2015-01-22T11:24:52.000Z</time>
      </trkpt>
      <trkpt lat="43.57012" lon="1.37214">
        <ele>160</ele>
        <time>2015-01-22T11:24:58.000Z</time>
      </trkpt>
      <trkpt lat="43.57028" lon="1.372">
        <ele>159.60000610352</ele>
        <time>2015-01-22T11:25:05.000Z</time>
      </trkpt>
      <trkpt lat="43.57037" lon="1.37187">
        <ele>159.39999389648</ele>
        <time>2015-01-22T11:25:10.000Z</time>
      </trkpt>
      <trkpt lat="43.57048" lon="1.37171">
        <ele>159.39999389648</ele>
        <time>2015-01-22T11:25:16.000Z</time>
      </trkpt>
      <trkpt lat="43.57062" lon="1.37167">
        <ele>159.60000610352</ele>
        <time>2015-01-22T11:25:21.000Z</time>
      </trkpt>
      <trkpt lat="43.57075" lon="1.3717">
        <ele>159.60000610352</ele>
        <time>2015-01-22T11:25:26.000Z</time>
      </trkpt>
      <trkpt lat="43.57081" lon="1.37158">
        <ele>159.80000305176</ele>
        <time>2015-01-22T11:25:30.000Z</time>
      </trkpt>
      <trkpt lat="43.57083" lon="1.37154">
        <ele>159.80000305176</ele>
        <time>2015-01-22T11:25:31.000Z</time>
      </trkpt>
      <trkpt lat="43.57088" lon="1.37139">
        <ele>160</ele>
        <time>2015-01-22T11:25:35.000Z</time>
      </trkpt>
      <trkpt lat="43.57094" lon="1.37122">
        <ele>159.80000305176</ele>
        <time>2015-01-22T11:25:40.000Z</time>
      </trkpt>
      <trkpt lat="43.57102" lon="1.37099">
        <ele>159.39999389648</ele>
        <time>2015-01-22T11:25:47.000Z</time>
      </trkpt>
      <trkpt lat="43.57109" lon="1.37075">
        <ele>159</ele>
        <time>2015-01-22T11:25:54.000Z</time>
      </trkpt>
      <trkpt lat="43.57114" lon="1.37058">
        <ele>158.80000305176</ele>
        <time>2015-01-22T11:25:59.000Z</time>
      </trkpt>
      <trkpt lat="43.57115" lon="1.37054">
        <ele>158.80000305176</ele>
        <time>2015-01-22T11:26:00.000Z</time>
      </trkpt>
      <trkpt lat="43.57122" lon="1.3703">
        <ele>158.80000305176</ele>
        <time>2015-01-22T11:26:07.000Z</time>
      </trkpt>
      <trkpt lat="43.57127" lon="1.37012">
        <ele>158.60000610352</ele>
        <time>2015-01-22T11:26:12.000Z</time>
      </trkpt>
      <trkpt lat="43.57132" lon="1.36992">
        <ele>158.60000610352</ele>
        <time>2015-01-22T11:26:17.000Z</time>
      </trkpt>
      <trkpt lat="43.57137" lon="1.36974">
        <ele>158.39999389648</ele>
        <time>2015-01-22T11:26:22.000Z</time>
      </trkpt>
      <trkpt lat="43.57143" lon="1.36953">
        <ele>158.19999694824</ele>
        <time>2015-01-22T11:26:28.000Z</time>
      </trkpt>
      <trkpt lat="43.57148" lon="1.3693">
        <ele>158</ele>
        <time>2015-01-22T11:26:34.000Z</time>
      </trkpt>
      <trkpt lat="43.57153" lon="1.36904">
        <ele>158</ele>
        <time>2015-01-22T11:26:41.000Z</time>
      </trkpt>
      <trkpt lat="43.57156" lon="1.36877">
        <ele>158.39999389648</ele>
        <time>2015-01-22T11:26:48.000Z</time>
      </trkpt>
      <trkpt lat="43.57159" lon="1.36852">
        <ele>157.80000305176</ele>
        <time>2015-01-22T11:26:55.000Z</time>
      </trkpt>
      <trkpt lat="43.57158" lon="1.36838">
        <ele>157.39999389648</ele>
        <time>2015-01-22T11:26:59.000Z</time>
      </trkpt>
      <trkpt lat="43.57157" lon="1.36834">
        <ele>157.39999389648</ele>
        <time>2015-01-22T11:27:00.000Z</time>
      </trkpt>
      <trkpt lat="43.57145" lon="1.36815">
        <ele>157.39999389648</ele>
        <time>2015-01-22T11:27:06.000Z</time>
      </trkpt>
      <trkpt lat="43.57137" lon="1.368">
        <ele>157.80000305176</ele>
        <time>2015-01-22T11:27:11.000Z</time>
      </trkpt>
      <trkpt lat="43.57124" lon="1.36779">
        <ele>158.60000610352</ele>
        <time>2015-01-22T11:27:18.000Z</time>
      </trkpt>
      <trkpt lat="43.57115" lon="1.36764">
        <ele>159.19999694824</ele>
        <time>2015-01-22T11:27:23.000Z</time>
      </trkpt>
      <trkpt lat="43.57104" lon="1.36747">
        <ele>159.80000305176</ele>
        <time>2015-01-22T11:27:29.000Z</time>
      </trkpt>
      <trkpt lat="43.57093" lon="1.36729">
        <ele>160</ele>
        <time>2015-01-22T11:27:35.000Z</time>
      </trkpt>
      <trkpt lat="43.57084" lon="1.36714">
        <ele>160</ele>
        <time>2015-01-22T11:27:40.000Z</time>
      </trkpt>
      <trkpt lat="43.57072" lon="1.36694">
        <ele>159.60000610352</ele>
        <time>2015-01-22T11:27:47.000Z</time>
      </trkpt>
      <trkpt lat="43.5707" lon="1.36691">
        <ele>159.39999389648</ele>
        <time>2015-01-22T11:27:48.000Z</time>
      </trkpt>
      <trkpt lat="43.57057" lon="1.36671">
        <ele>159</ele>
        <time>2015-01-22T11:27:55.000Z</time>
      </trkpt>
      <trkpt lat="43.57043" lon="1.36653">
        <ele>158.80000305176</ele>
        <time>2015-01-22T11:28:02.000Z</time>
      </trkpt>
      <trkpt lat="43.5703" lon="1.36638">
        <ele>158.80000305176</ele>
        <time>2015-01-22T11:28:08.000Z</time>
      </trkpt>
      <trkpt lat="43.57013" lon="1.36621">
        <ele>158.80000305176</ele>
        <time>2015-01-22T11:28:15.000Z</time>
      </trkpt>
      <trkpt lat="43.56998" lon="1.36604">
        <ele>158.80000305176</ele>
        <time>2015-01-22T11:28:22.000Z</time>
      </trkpt>
      <trkpt lat="43.56986" lon="1.36594">
        <ele>159</ele>
        <time>2015-01-22T11:28:27.000Z</time>
      </trkpt>
      <trkpt lat="43.5697" lon="1.36576">
        <ele>159.19999694824</ele>
        <time>2015-01-22T11:28:34.000Z</time>
      </trkpt>
      <trkpt lat="43.56957" lon="1.36562">
        <ele>159.19999694824</ele>
        <time>2015-01-22T11:28:40.000Z</time>
      </trkpt>
      <trkpt lat="43.56942" lon="1.36546">
        <ele>159</ele>
        <time>2015-01-22T11:28:47.000Z</time>
      </trkpt>
      <trkpt lat="43.5694" lon="1.36543">
        <ele>159</ele>
        <time>2015-01-22T11:28:48.000Z</time>
      </trkpt>
      <trkpt lat="43.56925" lon="1.36528">
        <ele>159</ele>
        <time>2015-01-22T11:28:55.000Z</time>
      </trkpt>
      <trkpt lat="43.56911" lon="1.3651">
        <ele>158.80000305176</ele>
        <time>2015-01-22T11:29:02.000Z</time>
      </trkpt>
      <trkpt lat="43.56898" lon="1.36492">
        <ele>158.39999389648</ele>
        <time>2015-01-22T11:29:08.000Z</time>
      </trkpt>
      <trkpt lat="43.56888" lon="1.3648">
        <ele>158.19999694824</ele>
        <time>2015-01-22T11:29:13.000Z</time>
      </trkpt>
      <trkpt lat="43.56873" lon="1.36472">
        <ele>158.80000305176</ele>
        <time>2015-01-22T11:29:19.000Z</time>
      </trkpt>
      <trkpt lat="43.56861" lon="1.36463">
        <ele>159</ele>
        <time>2015-01-22T11:29:24.000Z</time>
      </trkpt>
      <trkpt lat="43.56854" lon="1.36448">
        <ele>158.39999389648</ele>
        <time>2015-01-22T11:29:29.000Z</time>
      </trkpt>
      <trkpt lat="43.56846" lon="1.36426">
        <ele>157.39999389648</ele>
        <time>2015-01-22T11:29:36.000Z</time>
      </trkpt>
      <trkpt lat="43.56837" lon="1.36409">
        <ele>156.60000610352</ele>
        <time>2015-01-22T11:29:42.000Z</time>
      </trkpt>
      <trkpt lat="43.56826" lon="1.36393">
        <ele>156.60000610352</ele>
        <time>2015-01-22T11:29:48.000Z</time>
      </trkpt>
      <trkpt lat="43.56815" lon="1.36373">
        <ele>157.39999389648</ele>
        <time>2015-01-22T11:29:55.000Z</time>
      </trkpt>
      <trkpt lat="43.56805" lon="1.36356">
        <ele>158.19999694824</ele>
        <time>2015-01-22T11:30:01.000Z</time>
      </trkpt>
      <trkpt lat="43.56794" lon="1.3634">
        <ele>159</ele>
        <time>2015-01-22T11:30:07.000Z</time>
      </trkpt>
      <trkpt lat="43.56782" lon="1.3632">
        <ele>160</ele>
        <time>2015-01-22T11:30:14.000Z</time>
      </trkpt>
      <trkpt lat="43.5677" lon="1.36302">
        <ele>160.60000610352</ele>
        <time>2015-01-22T11:30:20.000Z</time>
      </trkpt>
      <trkpt lat="43.5676" lon="1.36285">
        <ele>160.80000305176</ele>
        <time>2015-01-22T11:30:26.000Z</time>
      </trkpt>
      <trkpt lat="43.56748" lon="1.36265">
        <ele>160.60000610352</ele>
        <time>2015-01-22T11:30:32.000Z</time>
      </trkpt>
      <trkpt lat="43.56746" lon="1.36262">
        <ele>160.60000610352</ele>
        <time>2015-01-22T11:30:33.000Z</time>
      </trkpt>
      <trkpt lat="43.56736" lon="1.36245">
        <ele>160.60000610352</ele>
        <time>2015-01-22T11:30:38.000Z</time>
      </trkpt>
      <trkpt lat="43.5673" lon="1.36226">
        <ele>160.39999389648</ele>
        <time>2015-01-22T11:30:43.000Z</time>
      </trkpt>
      <trkpt lat="43.56728" lon="1.362">
        <ele>160.39999389648</ele>
        <time>2015-01-22T11:30:49.000Z</time>
      </trkpt>
      <trkpt lat="43.56731" lon="1.36183">
        <ele>160.80000305176</ele>
        <time>2015-01-22T11:30:53.000Z</time>
      </trkpt>
      <trkpt lat="43.56733" lon="1.36179">
        <ele>160.80000305176</ele>
        <time>2015-01-22T11:30:54.000Z</time>
      </trkpt>
      <trkpt lat="43.56744" lon="1.36162">
        <ele>161.39999389648</ele>
        <time>2015-01-22T11:31:00.000Z</time>
      </trkpt>
      <trkpt lat="43.56754" lon="1.36145">
        <ele>161.80000305176</ele>
        <time>2015-01-22T11:31:06.000Z</time>
      </trkpt>
      <trkpt lat="43.56762" lon="1.36126">
        <ele>162</ele>
        <time>2015-01-22T11:31:12.000Z</time>
      </trkpt>
      <trkpt lat="43.56772" lon="1.36103">
        <ele>161.60000610352</ele>
        <time>2015-01-22T11:31:19.000Z</time>
      </trkpt>
      <trkpt lat="43.56774" lon="1.36097">
        <ele>161.39999389648</ele>
        <time>2015-01-22T11:31:21.000Z</time>
      </trkpt>
      <trkpt lat="43.5678" lon="1.3608">
        <ele>161</ele>
        <time>2015-01-22T11:31:26.000Z</time>
      </trkpt>
      <trkpt lat="43.56787" lon="1.36054">
        <ele>160.19999694824</ele>
        <time>2015-01-22T11:31:33.000Z</time>
      </trkpt>
      <trkpt lat="43.56788" lon="1.3605">
        <ele>160</ele>
        <time>2015-01-22T11:31:34.000Z</time>
      </trkpt>
      <trkpt lat="43.56793" lon="1.36026">
        <ele>159</ele>
        <time>2015-01-22T11:31:40.000Z</time>
      </trkpt>
      <trkpt lat="43.56799" lon="1.36001">
        <ele>158.19999694824</ele>
        <time>2015-01-22T11:31:46.000Z</time>
      </trkpt>
      <trkpt lat="43.56803" lon="1.35978">
        <ele>158</ele>
        <time>2015-01-22T11:31:52.000Z</time>
      </trkpt>
      <trkpt lat="43.56808" lon="1.3596">
        <ele>157.80000305176</ele>
        <time>2015-01-22T11:31:57.000Z</time>
      </trkpt>
      <trkpt lat="43.56813" lon="1.35937">
        <ele>157.80000305176</ele>
        <time>2015-01-22T11:32:03.000Z</time>
      </trkpt>
      <trkpt lat="43.56818" lon="1.35914">
        <ele>157.39999389648</ele>
        <time>2015-01-22T11:32:09.000Z</time>
      </trkpt>
      <trkpt lat="43.56824" lon="1.35893">
        <ele>157.19999694824</ele>
        <time>2015-01-22T11:32:15.000Z</time>
      </trkpt>
      <trkpt lat="43.56832" lon="1.35872">
        <ele>157.19999694824</ele>
        <time>2015-01-22T11:32:21.000Z</time>
      </trkpt>
      <trkpt lat="43.56835" lon="1.35853">
        <ele>156.80000305176</ele>
        <time>2015-01-22T11:32:26.000Z</time>
      </trkpt>
      <trkpt lat="43.56842" lon="1.35828">
        <ele>156</ele>
        <time>2015-01-22T11:32:33.000Z</time>
      </trkpt>
      <trkpt lat="43.5685" lon="1.35804">
        <ele>155.19999694824</ele>
        <time>2015-01-22T11:32:40.000Z</time>
      </trkpt>
      <trkpt lat="43.56856" lon="1.35778">
        <ele>155</ele>
        <time>2015-01-22T11:32:47.000Z</time>
      </trkpt>
      <trkpt lat="43.56863" lon="1.35752">
        <ele>155</ele>
        <time>2015-01-22T11:32:54.000Z</time>
      </trkpt>
      <trkpt lat="43.56868" lon="1.35733">
        <ele>155</ele>
        <time>2015-01-22T11:32:59.000Z</time>
      </trkpt>
      <trkpt lat="43.56873" lon="1.35716">
        <ele>156.60000610352</ele>
        <time>2015-01-22T11:33:04.000Z</time>
      </trkpt>
      <trkpt lat="43.56879" lon="1.35694">
        <ele>159</ele>
        <time>2015-01-22T11:33:10.000Z</time>
      </trkpt>
      <trkpt lat="43.56885" lon="1.35672">
        <ele>161.60000610352</ele>
        <time>2015-01-22T11:33:16.000Z</time>
      </trkpt>
      <trkpt lat="43.56896" lon="1.3565">
        <ele>164.80000305176</ele>
        <time>2015-01-22T11:33:23.000Z</time>
      </trkpt>
      <trkpt lat="43.56902" lon="1.35633">
        <ele>165.19999694824</ele>
        <time>2015-01-22T11:33:28.000Z</time>
      </trkpt>
      <trkpt lat="43.56907" lon="1.35616">
        <ele>165.39999389648</ele>
        <time>2015-01-22T11:33:33.000Z</time>
      </trkpt>
      <trkpt lat="43.56914" lon="1.35593">
        <ele>166.80000305176</ele>
        <time>2015-01-22T11:33:40.000Z</time>
      </trkpt>
      <trkpt lat="43.56919" lon="1.35576">
        <ele>167.60000610352</ele>
        <time>2015-01-22T11:33:45.000Z</time>
      </trkpt>
      <trkpt lat="43.56924" lon="1.35559">
        <ele>168.39999389648</ele>
        <time>2015-01-22T11:33:50.000Z</time>
      </trkpt>
      <trkpt lat="43.56922" lon="1.35538">
        <ele>168.19999694824</ele>
        <time>2015-01-22T11:33:55.000Z</time>
      </trkpt>
      <trkpt lat="43.56919" lon="1.35526">
        <ele>168</ele>
        <time>2015-01-22T11:33:59.000Z</time>
      </trkpt>
      <trkpt lat="43.56909" lon="1.35506">
        <ele>167.39999389648</ele>
        <time>2015-01-22T11:34:05.000Z</time>
      </trkpt>
      <trkpt lat="43.56897" lon="1.35485">
        <ele>166.60000610352</ele>
        <time>2015-01-22T11:34:11.000Z</time>
      </trkpt>
      <trkpt lat="43.56884" lon="1.35468">
        <ele>166.60000610352</ele>
        <time>2015-01-22T11:34:17.000Z</time>
      </trkpt>
      <trkpt lat="43.5687" lon="1.35451">
        <ele>166.80000305176</ele>
        <time>2015-01-22T11:34:24.000Z</time>
      </trkpt>
      <trkpt lat="43.5686" lon="1.35438">
        <ele>166.80000305176</ele>
        <time>2015-01-22T11:34:29.000Z</time>
      </trkpt>
      <trkpt lat="43.56851" lon="1.35425">
        <ele>167</ele>
        <time>2015-01-22T11:34:34.000Z</time>
      </trkpt>
      <trkpt lat="43.56837" lon="1.35405">
        <ele>167</ele>
        <time>2015-01-22T11:34:41.000Z</time>
      </trkpt>
      <trkpt lat="43.56822" lon="1.35387">
        <ele>166.80000305176</ele>
        <time>2015-01-22T11:34:48.000Z</time>
      </trkpt>
      <trkpt lat="43.56807" lon="1.35367">
        <ele>166.60000610352</ele>
        <time>2015-01-22T11:34:55.000Z</time>
      </trkpt>
      <trkpt lat="43.56793" lon="1.35348">
        <ele>166.39999389648</ele>
        <time>2015-01-22T11:35:02.000Z</time>
      </trkpt>
      <trkpt lat="43.56782" lon="1.35334">
        <ele>166.19999694824</ele>
        <time>2015-01-22T11:35:07.000Z</time>
      </trkpt>
      <trkpt lat="43.56772" lon="1.35321">
        <ele>166</ele>
        <time>2015-01-22T11:35:13.000Z</time>
      </trkpt>
      <trkpt lat="43.5676" lon="1.35306">
        <ele>166.19999694824</ele>
        <time>2015-01-22T11:35:20.000Z</time>
      </trkpt>
      <trkpt lat="43.56746" lon="1.35289">
        <ele>166.60000610352</ele>
        <time>2015-01-22T11:35:26.000Z</time>
      </trkpt>
      <trkpt lat="43.56732" lon="1.35269">
        <ele>167</ele>
        <time>2015-01-22T11:35:33.000Z</time>
      </trkpt>
      <trkpt lat="43.5672" lon="1.35254">
        <ele>167.39999389648</ele>
        <time>2015-01-22T11:35:39.000Z</time>
      </trkpt>
      <trkpt lat="43.56708" lon="1.35238">
        <ele>167.80000305176</ele>
        <time>2015-01-22T11:35:45.000Z</time>
      </trkpt>
      <trkpt lat="43.56699" lon="1.35224">
        <ele>168</ele>
        <time>2015-01-22T11:35:50.000Z</time>
      </trkpt>
      <trkpt lat="43.56684" lon="1.35205">
        <ele>168</ele>
        <time>2015-01-22T11:35:57.000Z</time>
      </trkpt>
      <trkpt lat="43.56672" lon="1.35188">
        <ele>168.19999694824</ele>
        <time>2015-01-22T11:36:03.000Z</time>
      </trkpt>
      <trkpt lat="43.56663" lon="1.35173">
        <ele>168.60000610352</ele>
        <time>2015-01-22T11:36:08.000Z</time>
      </trkpt>
      <trkpt lat="43.56652" lon="1.35161">
        <ele>168.80000305176</ele>
        <time>2015-01-22T11:36:13.000Z</time>
      </trkpt>
      <trkpt lat="43.56642" lon="1.35148">
        <ele>169</ele>
        <time>2015-01-22T11:36:18.000Z</time>
      </trkpt>
      <trkpt lat="43.56629" lon="1.35133">
        <ele>168.60000610352</ele>
        <time>2015-01-22T11:36:24.000Z</time>
      </trkpt>
      <trkpt lat="43.56616" lon="1.35114">
        <ele>168.39999389648</ele>
        <time>2015-01-22T11:36:31.000Z</time>
      </trkpt>
      <trkpt lat="43.56604" lon="1.35095">
        <ele>168</ele>
        <time>2015-01-22T11:36:38.000Z</time>
      </trkpt>
      <trkpt lat="43.56596" lon="1.35085">
        <ele>168</ele>
        <time>2015-01-22T11:36:42.000Z</time>
      </trkpt>
      <trkpt lat="43.56592" lon="1.3508">
        <ele>168.19999694824</ele>
        <time>2015-01-22T11:36:44.000Z</time>
      </trkpt>
      <trkpt lat="43.56581" lon="1.35063">
        <ele>168.19999694824</ele>
        <time>2015-01-22T11:36:50.000Z</time>
      </trkpt>
      <trkpt lat="43.56567" lon="1.35049">
        <ele>167.80000305176</ele>
        <time>2015-01-22T11:36:56.000Z</time>
      </trkpt>
      <trkpt lat="43.56555" lon="1.35033">
        <ele>167.39999389648</ele>
        <time>2015-01-22T11:37:02.000Z</time>
      </trkpt>
      <trkpt lat="43.56541" lon="1.35015">
        <ele>167</ele>
        <time>2015-01-22T11:37:09.000Z</time>
      </trkpt>
      <trkpt lat="43.56529" lon="1.34998">
        <ele>166.39999389648</ele>
        <time>2015-01-22T11:37:15.000Z</time>
      </trkpt>
      <trkpt lat="43.56517" lon="1.34983">
        <ele>166.19999694824</ele>
        <time>2015-01-22T11:37:21.000Z</time>
      </trkpt>
      <trkpt lat="43.56507" lon="1.34969">
        <ele>166.19999694824</ele>
        <time>2015-01-22T11:37:27.000Z</time>
      </trkpt>
      <trkpt lat="43.56498" lon="1.34957">
        <ele>166.39999389648</ele>
        <time>2015-01-22T11:37:32.000Z</time>
      </trkpt>
      <trkpt lat="43.56484" lon="1.34942">
        <ele>166.60000610352</ele>
        <time>2015-01-22T11:37:38.000Z</time>
      </trkpt>
      <trkpt lat="43.56471" lon="1.3493">
        <ele>167</ele>
        <time>2015-01-22T11:37:44.000Z</time>
      </trkpt>
      <trkpt lat="43.56454" lon="1.34916">
        <ele>167.39999389648</ele>
        <time>2015-01-22T11:37:51.000Z</time>
      </trkpt>
      <trkpt lat="43.56452" lon="1.34914">
        <ele>167.60000610352</ele>
        <time>2015-01-22T11:37:52.000Z</time>
      </trkpt>
      <trkpt lat="43.56435" lon="1.349">
        <ele>168</ele>
        <time>2015-01-22T11:37:59.000Z</time>
      </trkpt>
      <trkpt lat="43.56432" lon="1.34898">
        <ele>168.19999694824</ele>
        <time>2015-01-22T11:38:00.000Z</time>
      </trkpt>
      <trkpt lat="43.56419" lon="1.34889">
        <ele>168.19999694824</ele>
        <time>2015-01-22T11:38:05.000Z</time>
      </trkpt>
      <trkpt lat="43.56404" lon="1.34878">
        <ele>168.19999694824</ele>
        <time>2015-01-22T11:38:11.000Z</time>
      </trkpt>
      <trkpt lat="43.56389" lon="1.34866">
        <ele>168.39999389648</ele>
        <time>2015-01-22T11:38:17.000Z</time>
      </trkpt>
      <trkpt lat="43.56371" lon="1.34854">
        <ele>168.39999389648</ele>
        <time>2015-01-22T11:38:24.000Z</time>
      </trkpt>
      <trkpt lat="43.5636" lon="1.34844">
        <ele>168.39999389648</ele>
        <time>2015-01-22T11:38:29.000Z</time>
      </trkpt>
      <trkpt lat="43.56345" lon="1.34833">
        <ele>168.19999694824</ele>
        <time>2015-01-22T11:38:35.000Z</time>
      </trkpt>
      <trkpt lat="43.56335" lon="1.34821">
        <ele>167.60000610352</ele>
        <time>2015-01-22T11:38:40.000Z</time>
      </trkpt>
      <trkpt lat="43.56325" lon="1.34807">
        <ele>167.39999389648</ele>
        <time>2015-01-22T11:38:46.000Z</time>
      </trkpt>
      <trkpt lat="43.56312" lon="1.34789">
        <ele>167.80000305176</ele>
        <time>2015-01-22T11:38:52.000Z</time>
      </trkpt>
      <trkpt lat="43.56303" lon="1.34771">
        <ele>168</ele>
        <time>2015-01-22T11:38:57.000Z</time>
      </trkpt>
      <trkpt lat="43.56291" lon="1.3476">
        <ele>168.39999389648</ele>
        <time>2015-01-22T11:39:02.000Z</time>
      </trkpt>
      <trkpt lat="43.56284" lon="1.34742">
        <ele>168.39999389648</ele>
        <time>2015-01-22T11:39:07.000Z</time>
      </trkpt>
      <trkpt lat="43.56286" lon="1.34718">
        <ele>168</ele>
        <time>2015-01-22T11:39:13.000Z</time>
      </trkpt>
      <trkpt lat="43.56294" lon="1.34709">
        <ele>167.39999389648</ele>
        <time>2015-01-22T11:39:17.000Z</time>
      </trkpt>
      <trkpt lat="43.56302" lon="1.34699">
        <ele>167</ele>
        <time>2015-01-22T11:39:21.000Z</time>
      </trkpt>
      <trkpt lat="43.56309" lon="1.34683">
        <ele>166.60000610352</ele>
        <time>2015-01-22T11:39:26.000Z</time>
      </trkpt>
      <trkpt lat="43.56316" lon="1.34664">
        <ele>166.39999389648</ele>
        <time>2015-01-22T11:39:32.000Z</time>
      </trkpt>
      <trkpt lat="43.56323" lon="1.34648">
        <ele>166.39999389648</ele>
        <time>2015-01-22T11:39:37.000Z</time>
      </trkpt>
      <trkpt lat="43.5633" lon="1.34632">
        <ele>165.80000305176</ele>
        <time>2015-01-22T11:39:42.000Z</time>
      </trkpt>
      <trkpt lat="43.56335" lon="1.34613">
        <ele>166.19999694824</ele>
        <time>2015-01-22T11:39:48.000Z</time>
      </trkpt>
      <trkpt lat="43.5634" lon="1.34596">
        <ele>166.80000305176</ele>
        <time>2015-01-22T11:39:53.000Z</time>
      </trkpt>
      <trkpt lat="43.56344" lon="1.34573">
        <ele>167.60000610352</ele>
        <time>2015-01-22T11:39:59.000Z</time>
      </trkpt>
      <trkpt lat="43.56349" lon="1.34556">
        <ele>168</ele>
        <time>2015-01-22T11:40:04.000Z</time>
      </trkpt>
      <trkpt lat="43.56355" lon="1.34529">
        <ele>167.80000305176</ele>
        <time>2015-01-22T11:40:11.000Z</time>
      </trkpt>
      <trkpt lat="43.56361" lon="1.34513">
        <ele>167.39999389648</ele>
        <time>2015-01-22T11:40:16.000Z</time>
      </trkpt>
      <trkpt lat="43.56367" lon="1.345">
        <ele>167</ele>
        <time>2015-01-22T11:40:20.000Z</time>
      </trkpt>
      <trkpt lat="43.56373" lon="1.34484">
        <ele>167.39999389648</ele>
        <time>2015-01-22T11:40:25.000Z</time>
      </trkpt>
      <trkpt lat="43.56379" lon="1.34468">
        <ele>167.19999694824</ele>
        <time>2015-01-22T11:40:30.000Z</time>
      </trkpt>
      <trkpt lat="43.56385" lon="1.34448">
        <ele>166.80000305176</ele>
        <time>2015-01-22T11:40:36.000Z</time>
      </trkpt>
      <trkpt lat="43.56385" lon="1.34427">
        <ele>166.60000610352</ele>
        <time>2015-01-22T11:40:42.000Z</time>
      </trkpt>
      <trkpt lat="43.56382" lon="1.34406">
        <ele>167.19999694824</ele>
        <time>2015-01-22T11:40:47.000Z</time>
      </trkpt>
      <trkpt lat="43.56378" lon="1.3438">
        <ele>167.80000305176</ele>
        <time>2015-01-22T11:40:53.000Z</time>
      </trkpt>
      <trkpt lat="43.56381" lon="1.34363">
        <ele>168.19999694824</ele>
        <time>2015-01-22T11:40:58.000Z</time>
      </trkpt>
      <trkpt lat="43.56385" lon="1.34338">
        <ele>168.60000610352</ele>
        <time>2015-01-22T11:41:05.000Z</time>
      </trkpt>
      <trkpt lat="43.56393" lon="1.34318">
        <ele>168.39999389648</ele>
        <time>2015-01-22T11:41:11.000Z</time>
      </trkpt>
      <trkpt lat="43.564" lon="1.34298">
        <ele>168.19999694824</ele>
        <time>2015-01-22T11:41:17.000Z</time>
      </trkpt>
      <trkpt lat="43.5641" lon="1.34278">
        <ele>167.80000305176</ele>
        <time>2015-01-22T11:41:23.000Z</time>
      </trkpt>
      <trkpt lat="43.56422" lon="1.3426">
        <ele>167.60000610352</ele>
        <time>2015-01-22T11:41:29.000Z</time>
      </trkpt>
      <trkpt lat="43.5643" lon="1.3424">
        <ele>167.19999694824</ele>
        <time>2015-01-22T11:41:35.000Z</time>
      </trkpt>
      <trkpt lat="43.56427" lon="1.34226">
        <ele>167.19999694824</ele>
        <time>2015-01-22T11:41:39.000Z</time>
      </trkpt>
      <trkpt lat="43.56424" lon="1.34215">
        <ele>167.39999389648</ele>
        <time>2015-01-22T11:41:43.000Z</time>
      </trkpt>
      <trkpt lat="43.56424" lon="1.34211">
        <ele>167.60000610352</ele>
        <time>2015-01-22T11:41:44.000Z</time>
      </trkpt>
      <trkpt lat="43.56421" lon="1.34185">
        <ele>168.39999389648</ele>
        <time>2015-01-22T11:41:50.000Z</time>
      </trkpt>
      <trkpt lat="43.56417" lon="1.34166">
        <ele>169.19999694824</ele>
        <time>2015-01-22T11:41:55.000Z</time>
      </trkpt>
      <trkpt lat="43.56419" lon="1.34142">
        <ele>169.80000305176</ele>
        <time>2015-01-22T11:42:02.000Z</time>
      </trkpt>
      <trkpt lat="43.56424" lon="1.34126">
        <ele>169.80000305176</ele>
        <time>2015-01-22T11:42:07.000Z</time>
      </trkpt>
      <trkpt lat="43.56425" lon="1.3412">
        <ele>169.80000305176</ele>
        <time>2015-01-22T11:42:09.000Z</time>
      </trkpt>
      <trkpt lat="43.56428" lon="1.34103">
        <ele>169.80000305176</ele>
        <time>2015-01-22T11:42:14.000Z</time>
      </trkpt>
      <trkpt lat="43.56436" lon="1.34092">
        <ele>170</ele>
        <time>2015-01-22T11:42:18.000Z</time>
      </trkpt>
      <trkpt lat="43.56439" lon="1.34076">
        <ele>170</ele>
        <time>2015-01-22T11:42:22.000Z</time>
      </trkpt>
      <trkpt lat="43.56436" lon="1.34063">
        <ele>169.80000305176</ele>
        <time>2015-01-22T11:42:26.000Z</time>
      </trkpt>
      <trkpt lat="43.56424" lon="1.34042">
        <ele>168.39999389648</ele>
        <time>2015-01-22T11:42:32.000Z</time>
      </trkpt>
      <trkpt lat="43.56413" lon="1.34036">
        <ele>168.19999694824</ele>
        <time>2015-01-22T11:42:36.000Z</time>
      </trkpt>
      <trkpt lat="43.56397" lon="1.34027">
        <ele>167.80000305176</ele>
        <time>2015-01-22T11:42:42.000Z</time>
      </trkpt>
      <trkpt lat="43.56384" lon="1.34019">
        <ele>167.19999694824</ele>
        <time>2015-01-22T11:42:48.000Z</time>
      </trkpt>
      <trkpt lat="43.56373" lon="1.34012">
        <ele>166.60000610352</ele>
        <time>2015-01-22T11:42:52.000Z</time>
      </trkpt>
      <trkpt lat="43.56362" lon="1.34">
        <ele>166</ele>
        <time>2015-01-22T11:42:57.000Z</time>
      </trkpt>
      <trkpt lat="43.56351" lon="1.33985">
        <ele>165.19999694824</ele>
        <time>2015-01-22T11:43:03.000Z</time>
      </trkpt>
      <trkpt lat="43.56343" lon="1.33973">
        <ele>164.80000305176</ele>
        <time>2015-01-22T11:43:08.000Z</time>
      </trkpt>
      <trkpt lat="43.56341" lon="1.33967">
        <ele>164.60000610352</ele>
        <time>2015-01-22T11:43:10.000Z</time>
      </trkpt>
      <trkpt lat="43.56344" lon="1.33963">
        <ele>164.39999389648</ele>
        <time>2015-01-22T11:43:12.000Z</time>
      </trkpt>
      <trkpt lat="43.56349" lon="1.33961">
        <ele>164.19999694824</ele>
        <time>2015-01-22T11:43:14.000Z</time>
      </trkpt>
      <trkpt lat="43.56358" lon="1.33953">
        <ele>163.80000305176</ele>
        <time>2015-01-22T11:43:18.000Z</time>
      </trkpt>
      <trkpt lat="43.56372" lon="1.33937">
        <ele>163</ele>
        <time>2015-01-22T11:43:25.000Z</time>
      </trkpt>
      <trkpt lat="43.56374" lon="1.33934">
        <ele>162.80000305176</ele>
        <time>2015-01-22T11:43:26.000Z</time>
      </trkpt>
      <trkpt lat="43.56387" lon="1.33916">
        <ele>161.60000610352</ele>
        <time>2015-01-22T11:43:33.000Z</time>
      </trkpt>
      <trkpt lat="43.56391" lon="1.33911">
        <ele>161.19999694824</ele>
        <time>2015-01-22T11:43:35.000Z</time>
      </trkpt>
      <trkpt lat="43.56403" lon="1.33892">
        <ele>160</ele>
        <time>2015-01-22T11:43:42.000Z</time>
      </trkpt>
      <trkpt lat="43.56412" lon="1.3388">
        <ele>159.60000610352</ele>
        <time>2015-01-22T11:43:47.000Z</time>
      </trkpt>
      <trkpt lat="43.56424" lon="1.33865">
        <ele>159.19999694824</ele>
        <time>2015-01-22T11:43:53.000Z</time>
      </trkpt>
      <trkpt lat="43.56439" lon="1.33857">
        <ele>159.19999694824</ele>
        <time>2015-01-22T11:43:59.000Z</time>
      </trkpt>
      <trkpt lat="43.56453" lon="1.33846">
        <ele>159.60000610352</ele>
        <time>2015-01-22T11:44:05.000Z</time>
      </trkpt>
      <trkpt lat="43.5647" lon="1.33837">
        <ele>160.39999389648</ele>
        <time>2015-01-22T11:44:12.000Z</time>
      </trkpt>
      <trkpt lat="43.5648" lon="1.33842">
        <ele>160.80000305176</ele>
        <time>2015-01-22T11:44:16.000Z</time>
      </trkpt>
      <trkpt lat="43.56491" lon="1.33842">
        <ele>161.39999389648</ele>
        <time>2015-01-22T11:44:21.000Z</time>
      </trkpt>
      <trkpt lat="43.56507" lon="1.33848">
        <ele>162</ele>
        <time>2015-01-22T11:44:27.000Z</time>
      </trkpt>
      <trkpt lat="43.5652" lon="1.33855">
        <ele>162.60000610352</ele>
        <time>2015-01-22T11:44:32.000Z</time>
      </trkpt>
      <trkpt lat="43.56538" lon="1.33862">
        <ele>162.39999389648</ele>
        <time>2015-01-22T11:44:39.000Z</time>
      </trkpt>
      <trkpt lat="43.56541" lon="1.33864">
        <ele>162.39999389648</ele>
        <time>2015-01-22T11:44:40.000Z</time>
      </trkpt>
      <trkpt lat="43.56554" lon="1.33872">
        <ele>162.39999389648</ele>
        <time>2015-01-22T11:44:45.000Z</time>
      </trkpt>
      <trkpt lat="43.5657" lon="1.33882">
        <ele>162.19999694824</ele>
        <time>2015-01-22T11:44:52.000Z</time>
      </trkpt>
      <trkpt lat="43.56585" lon="1.33889">
        <ele>162.19999694824</ele>
        <time>2015-01-22T11:44:58.000Z</time>
      </trkpt>
      <trkpt lat="43.56598" lon="1.33894">
        <ele>162</ele>
        <time>2015-01-22T11:45:03.000Z</time>
      </trkpt>
      <trkpt lat="43.5661" lon="1.33899">
        <ele>162.19999694824</ele>
        <time>2015-01-22T11:45:08.000Z</time>
      </trkpt>
      <trkpt lat="43.56626" lon="1.33898">
        <ele>162.80000305176</ele>
        <time>2015-01-22T11:45:14.000Z</time>
      </trkpt>
      <trkpt lat="43.56637" lon="1.33905">
        <ele>163.19999694824</ele>
        <time>2015-01-22T11:45:18.000Z</time>
      </trkpt>
      <trkpt lat="43.56649" lon="1.33916">
        <ele>163.60000610352</ele>
        <time>2015-01-22T11:45:23.000Z</time>
      </trkpt>
      <trkpt lat="43.56658" lon="1.33928">
        <ele>163.60000610352</ele>
        <time>2015-01-22T11:45:28.000Z</time>
      </trkpt>
      <trkpt lat="43.5666" lon="1.33929">
        <ele>163.80000305176</ele>
        <time>2015-01-22T11:45:29.000Z</time>
      </trkpt>
      <trkpt lat="43.56666" lon="1.33935">
        <ele>164</ele>
        <time>2015-01-22T11:45:32.000Z</time>
      </trkpt>
      <trkpt lat="43.56669" lon="1.33937">
        <ele>164</ele>
        <time>2015-01-22T11:45:33.000Z</time>
      </trkpt>
      <trkpt lat="43.5668" lon="1.33947">
        <ele>164.19999694824</ele>
        <time>2015-01-22T11:45:38.000Z</time>
      </trkpt>
      <trkpt lat="43.56687" lon="1.33956">
        <ele>164.19999694824</ele>
        <time>2015-01-22T11:45:42.000Z</time>
      </trkpt>
      <trkpt lat="43.56698" lon="1.33968">
        <ele>164</ele>
        <time>2015-01-22T11:45:47.000Z</time>
      </trkpt>
      <trkpt lat="43.56711" lon="1.33982">
        <ele>163.60000610352</ele>
        <time>2015-01-22T11:45:53.000Z</time>
      </trkpt>
      <trkpt lat="43.56725" lon="1.33992">
        <ele>163</ele>
        <time>2015-01-22T11:45:59.000Z</time>
      </trkpt>
      <trkpt lat="43.5674" lon="1.34002">
        <ele>162.39999389648</ele>
        <time>2015-01-22T11:46:05.000Z</time>
      </trkpt>
      <trkpt lat="43.56756" lon="1.34011">
        <ele>161.60000610352</ele>
        <time>2015-01-22T11:46:12.000Z</time>
      </trkpt>
      <trkpt lat="43.56759" lon="1.34013">
        <ele>161.60000610352</ele>
        <time>2015-01-22T11:46:13.000Z</time>
      </trkpt>
      <trkpt lat="43.56775" lon="1.34019">
        <ele>161.60000610352</ele>
        <time>2015-01-22T11:46:20.000Z</time>
      </trkpt>
      <trkpt lat="43.56788" lon="1.34016">
        <ele>162.39999389648</ele>
        <time>2015-01-22T11:46:25.000Z</time>
      </trkpt>
      <trkpt lat="43.56804" lon="1.34014">
        <ele>163</ele>
        <time>2015-01-22T11:46:30.000Z</time>
      </trkpt>
      <trkpt lat="43.56818" lon="1.34015">
        <ele>163</ele>
        <time>2015-01-22T11:46:35.000Z</time>
      </trkpt>
      <trkpt lat="43.56832" lon="1.34017">
        <ele>163</ele>
        <time>2015-01-22T11:46:41.000Z</time>
      </trkpt>
      <trkpt lat="43.56842" lon="1.34018">
        <ele>163</ele>
        <time>2015-01-22T11:46:45.000Z</time>
      </trkpt>
      <trkpt lat="43.56855" lon="1.34015">
        <ele>162.80000305176</ele>
        <time>2015-01-22T11:46:50.000Z</time>
      </trkpt>
      <trkpt lat="43.56869" lon="1.34006">
        <ele>162.19999694824</ele>
        <time>2015-01-22T11:46:56.000Z</time>
      </trkpt>
      <trkpt lat="43.56884" lon="1.34003">
        <ele>161.80000305176</ele>
        <time>2015-01-22T11:47:01.000Z</time>
      </trkpt>
      <trkpt lat="43.56898" lon="1.34">
        <ele>161.80000305176</ele>
        <time>2015-01-22T11:47:06.000Z</time>
      </trkpt>
      <trkpt lat="43.56914" lon="1.33994">
        <ele>161.80000305176</ele>
        <time>2015-01-22T11:47:12.000Z</time>
      </trkpt>
      <trkpt lat="43.5693" lon="1.33994">
        <ele>161.60000610352</ele>
        <time>2015-01-22T11:47:18.000Z</time>
      </trkpt>
      <trkpt lat="43.56941" lon="1.34">
        <ele>161.39999389648</ele>
        <time>2015-01-22T11:47:23.000Z</time>
      </trkpt>
      <trkpt lat="43.56951" lon="1.34015">
        <ele>161</ele>
        <time>2015-01-22T11:47:29.000Z</time>
      </trkpt>
      <trkpt lat="43.56952" lon="1.34035">
        <ele>160.19999694824</ele>
        <time>2015-01-22T11:47:34.000Z</time>
      </trkpt>
      <trkpt lat="43.56956" lon="1.34053">
        <ele>159.60000610352</ele>
        <time>2015-01-22T11:47:39.000Z</time>
      </trkpt>
      <trkpt lat="43.56962" lon="1.34069">
        <ele>159.39999389648</ele>
        <time>2015-01-22T11:47:44.000Z</time>
      </trkpt>
      <trkpt lat="43.56963" lon="1.34072">
        <ele>159.39999389648</ele>
        <time>2015-01-22T11:47:45.000Z</time>
      </trkpt>
      <trkpt lat="43.56969" lon="1.34091">
        <ele>159.80000305176</ele>
        <time>2015-01-22T11:47:51.000Z</time>
      </trkpt>
      <trkpt lat="43.56973" lon="1.34113">
        <ele>160.19999694824</ele>
        <time>2015-01-22T11:47:57.000Z</time>
      </trkpt>
      <trkpt lat="43.56978" lon="1.34138">
        <ele>160.80000305176</ele>
        <time>2015-01-22T11:48:04.000Z</time>
      </trkpt>
      <trkpt lat="43.56981" lon="1.34152">
        <ele>160.80000305176</ele>
        <time>2015-01-22T11:48:09.000Z</time>
      </trkpt>
      <trkpt lat="43.5699" lon="1.34165">
        <ele>160.39999389648</ele>
        <time>2015-01-22T11:48:14.000Z</time>
      </trkpt>
      <trkpt lat="43.56996" lon="1.34179">
        <ele>159.80000305176</ele>
        <time>2015-01-22T11:48:18.000Z</time>
      </trkpt>
      <trkpt lat="43.57003" lon="1.34191">
        <ele>159.39999389648</ele>
        <time>2015-01-22T11:48:22.000Z</time>
      </trkpt>
      <trkpt lat="43.57015" lon="1.34205">
        <ele>159</ele>
        <time>2015-01-22T11:48:27.000Z</time>
      </trkpt>
      <trkpt lat="43.57028" lon="1.3422">
        <ele>158.60000610352</ele>
        <time>2015-01-22T11:48:33.000Z</time>
      </trkpt>
      <trkpt lat="43.57039" lon="1.34237">
        <ele>158.39999389648</ele>
        <time>2015-01-22T11:48:39.000Z</time>
      </trkpt>
      <trkpt lat="43.5705" lon="1.34255">
        <ele>158.39999389648</ele>
        <time>2015-01-22T11:48:45.000Z</time>
      </trkpt>
      <trkpt lat="43.57061" lon="1.34273">
        <ele>158.60000610352</ele>
        <time>2015-01-22T11:48:51.000Z</time>
      </trkpt>
      <trkpt lat="43.5707" lon="1.34292">
        <ele>158.80000305176</ele>
        <time>2015-01-22T11:48:57.000Z</time>
      </trkpt>
      <trkpt lat="43.57077" lon="1.34304">
        <ele>159</ele>
        <time>2015-01-22T11:49:01.000Z</time>
      </trkpt>
      <trkpt lat="43.57084" lon="1.34323">
        <ele>159.39999389648</ele>
        <time>2015-01-22T11:49:07.000Z</time>
      </trkpt>
      <trkpt lat="43.5709" lon="1.34342">
        <ele>159.39999389648</ele>
        <time>2015-01-22T11:49:13.000Z</time>
      </trkpt>
      <trkpt lat="43.57095" lon="1.34361">
        <ele>159.60000610352</ele>
        <time>2015-01-22T11:49:19.000Z</time>
      </trkpt>
      <trkpt lat="43.57098" lon="1.34377">
        <ele>159.80000305176</ele>
        <time>2015-01-22T11:49:24.000Z</time>
      </trkpt>
      <trkpt lat="43.57102" lon="1.34398">
        <ele>160</ele>
        <time>2015-01-22T11:49:30.000Z</time>
      </trkpt>
      <trkpt lat="43.57103" lon="1.34401">
        <ele>160</ele>
        <time>2015-01-22T11:49:31.000Z</time>
      </trkpt>
      <trkpt lat="43.57109" lon="1.34409">
        <ele>160</ele>
        <time>2015-01-22T11:49:34.000Z</time>
      </trkpt>
      <trkpt lat="43.57114" lon="1.34426">
        <ele>160.19999694824</ele>
        <time>2015-01-22T11:49:39.000Z</time>
      </trkpt>
      <trkpt lat="43.57115" lon="1.34429">
        <ele>160.19999694824</ele>
        <time>2015-01-22T11:49:40.000Z</time>
      </trkpt>
      <trkpt lat="43.57119" lon="1.34441">
        <ele>160.19999694824</ele>
        <time>2015-01-22T11:49:44.000Z</time>
      </trkpt>
      <trkpt lat="43.57126" lon="1.34455">
        <ele>160.19999694824</ele>
        <time>2015-01-22T11:49:49.000Z</time>
      </trkpt>
      <trkpt lat="43.57139" lon="1.34474">
        <ele>160.39999389648</ele>
        <time>2015-01-22T11:49:56.000Z</time>
      </trkpt>
      <trkpt lat="43.57147" lon="1.34492">
        <ele>160.80000305176</ele>
        <time>2015-01-22T11:50:02.000Z</time>
      </trkpt>
      <trkpt lat="43.57155" lon="1.34509">
        <ele>161.39999389648</ele>
        <time>2015-01-22T11:50:08.000Z</time>
      </trkpt>
      <trkpt lat="43.57165" lon="1.34531">
        <ele>162</ele>
        <time>2015-01-22T11:50:15.000Z</time>
      </trkpt>
      <trkpt lat="43.57171" lon="1.34548">
        <ele>162.39999389648</ele>
        <time>2015-01-22T11:50:20.000Z</time>
      </trkpt>
      <trkpt lat="43.57177" lon="1.34574">
        <ele>162.80000305176</ele>
        <time>2015-01-22T11:50:28.000Z</time>
      </trkpt>
      <trkpt lat="43.57179" lon="1.34579">
        <ele>163</ele>
        <time>2015-01-22T11:50:30.000Z</time>
      </trkpt>
      <trkpt lat="43.57177" lon="1.34591">
        <ele>163.19999694824</ele>
        <time>2015-01-22T11:51:17.000Z</time>
      </trkpt>
      <trkpt lat="43.57175" lon="1.34595">
        <ele>163.19999694824</ele>
        <time>2015-01-22T11:51:19.000Z</time>
      </trkpt>
      <trkpt lat="43.57172" lon="1.34608">
        <ele>163.19999694824</ele>
        <time>2015-01-22T11:51:23.000Z</time>
      </trkpt>
      <trkpt lat="43.57171" lon="1.34611">
        <ele>163.39999389648</ele>
        <time>2015-01-22T11:51:24.000Z</time>
      </trkpt>
      <trkpt lat="43.57171" lon="1.34629">
        <ele>163.80000305176</ele>
        <time>2015-01-22T11:51:29.000Z</time>
      </trkpt>
      <trkpt lat="43.57169" lon="1.34642">
        <ele>164</ele>
        <time>2015-01-22T11:51:33.000Z</time>
      </trkpt>
      <trkpt lat="43.57162" lon="1.34662">
        <ele>163.60000610352</ele>
        <time>2015-01-22T11:51:39.000Z</time>
      </trkpt>
      <trkpt lat="43.57151" lon="1.34677">
        <ele>162.60000610352</ele>
        <time>2015-01-22T11:51:45.000Z</time>
      </trkpt>
      <trkpt lat="43.57139" lon="1.34693">
        <ele>162</ele>
        <time>2015-01-22T11:51:51.000Z</time>
      </trkpt>
      <trkpt lat="43.57127" lon="1.34707">
        <ele>161.60000610352</ele>
        <time>2015-01-22T11:51:57.000Z</time>
      </trkpt>
      <trkpt lat="43.57113" lon="1.34722">
        <ele>161.19999694824</ele>
        <time>2015-01-22T11:52:04.000Z</time>
      </trkpt>
      <trkpt lat="43.57103" lon="1.34733">
        <ele>161</ele>
        <time>2015-01-22T11:52:09.000Z</time>
      </trkpt>
      <trkpt lat="43.57089" lon="1.34748">
        <ele>161.19999694824</ele>
        <time>2015-01-22T11:52:16.000Z</time>
      </trkpt>
      <trkpt lat="43.57077" lon="1.34763">
        <ele>161.39999389648</ele>
        <time>2015-01-22T11:52:22.000Z</time>
      </trkpt>
      <trkpt lat="43.57066" lon="1.34781">
        <ele>161.60000610352</ele>
        <time>2015-01-22T11:52:28.000Z</time>
      </trkpt>
      <trkpt lat="43.5706" lon="1.34798">
        <ele>161</ele>
        <time>2015-01-22T11:52:33.000Z</time>
      </trkpt>
      <trkpt lat="43.57053" lon="1.34822">
        <ele>160.39999389648</ele>
        <time>2015-01-22T11:52:40.000Z</time>
      </trkpt>
      <trkpt lat="43.57049" lon="1.34843">
        <ele>160.19999694824</ele>
        <time>2015-01-22T11:52:46.000Z</time>
      </trkpt>
      <trkpt lat="43.57045" lon="1.34864">
        <ele>160</ele>
        <time>2015-01-22T11:52:52.000Z</time>
      </trkpt>
      <trkpt lat="43.57046" lon="1.34888">
        <ele>160</ele>
        <time>2015-01-22T11:52:59.000Z</time>
      </trkpt>
      <trkpt lat="43.57051" lon="1.34905">
        <ele>159.80000305176</ele>
        <time>2015-01-22T11:53:04.000Z</time>
      </trkpt>
      <trkpt lat="43.57059" lon="1.3492">
        <ele>159</ele>
        <time>2015-01-22T11:53:09.000Z</time>
      </trkpt>
      <trkpt lat="43.57072" lon="1.34934">
        <ele>158.80000305176</ele>
        <time>2015-01-22T11:53:15.000Z</time>
      </trkpt>
      <trkpt lat="43.57089" lon="1.34949">
        <ele>159</ele>
        <time>2015-01-22T11:53:22.000Z</time>
      </trkpt>
      <trkpt lat="43.57101" lon="1.34959">
        <ele>159.39999389648</ele>
        <time>2015-01-22T11:53:27.000Z</time>
      </trkpt>
      <trkpt lat="43.57114" lon="1.34967">
        <ele>158.39999389648</ele>
        <time>2015-01-22T11:53:32.000Z</time>
      </trkpt>
      <trkpt lat="43.5713" lon="1.34974">
        <ele>157.80000305176</ele>
        <time>2015-01-22T11:53:38.000Z</time>
      </trkpt>
      <trkpt lat="43.57147" lon="1.34978">
        <ele>157.19999694824</ele>
        <time>2015-01-22T11:53:44.000Z</time>
      </trkpt>
      <trkpt lat="43.57164" lon="1.34984">
        <ele>157</ele>
        <time>2015-01-22T11:53:50.000Z</time>
      </trkpt>
      <trkpt lat="43.57181" lon="1.34991">
        <ele>157</ele>
        <time>2015-01-22T11:53:56.000Z</time>
      </trkpt>
      <trkpt lat="43.57194" lon="1.34997">
        <ele>157.19999694824</ele>
        <time>2015-01-22T11:54:01.000Z</time>
      </trkpt>
      <trkpt lat="43.57204" lon="1.35003">
        <ele>157.39999389648</ele>
        <time>2015-01-22T11:54:05.000Z</time>
      </trkpt>
      <trkpt lat="43.57212" lon="1.35009">
        <ele>157.60000610352</ele>
        <time>2015-01-22T11:54:08.000Z</time>
      </trkpt>
      <trkpt lat="43.57222" lon="1.35016">
        <ele>158</ele>
        <time>2015-01-22T11:54:12.000Z</time>
      </trkpt>
      <trkpt lat="43.57234" lon="1.35028">
        <ele>158.19999694824</ele>
        <time>2015-01-22T11:54:17.000Z</time>
      </trkpt>
      <trkpt lat="43.57246" lon="1.35041">
        <ele>158.60000610352</ele>
        <time>2015-01-22T11:54:22.000Z</time>
      </trkpt>
      <trkpt lat="43.57254" lon="1.35057">
        <ele>158.60000610352</ele>
        <time>2015-01-22T11:54:27.000Z</time>
      </trkpt>
      <trkpt lat="43.57262" lon="1.35069">
        <ele>158.80000305176</ele>
        <time>2015-01-22T11:54:31.000Z</time>
      </trkpt>
      <trkpt lat="43.57271" lon="1.35087">
        <ele>158.39999389648</ele>
        <time>2015-01-22T11:54:37.000Z</time>
      </trkpt>
      <trkpt lat="43.57281" lon="1.35111">
        <ele>157.80000305176</ele>
        <time>2015-01-22T11:54:44.000Z</time>
      </trkpt>
      <trkpt lat="43.57289" lon="1.35125">
        <ele>157.60000610352</ele>
        <time>2015-01-22T11:54:49.000Z</time>
      </trkpt>
      <trkpt lat="43.57298" lon="1.35143">
        <ele>157.19999694824</ele>
        <time>2015-01-22T11:54:55.000Z</time>
      </trkpt>
      <trkpt lat="43.57308" lon="1.35155">
        <ele>157</ele>
        <time>2015-01-22T11:55:00.000Z</time>
      </trkpt>
      <trkpt lat="43.5732" lon="1.35163">
        <ele>157</ele>
        <time>2015-01-22T11:55:05.000Z</time>
      </trkpt>
      <trkpt lat="43.57339" lon="1.35165">
        <ele>157</ele>
        <time>2015-01-22T11:55:12.000Z</time>
      </trkpt>
      <trkpt lat="43.57353" lon="1.35162">
        <ele>157</ele>
        <time>2015-01-22T11:55:18.000Z</time>
      </trkpt>
      <trkpt lat="43.57365" lon="1.35159">
        <ele>157</ele>
        <time>2015-01-22T11:55:23.000Z</time>
      </trkpt>
      <trkpt lat="43.57381" lon="1.35156">
        <ele>157</ele>
        <time>2015-01-22T11:55:29.000Z</time>
      </trkpt>
      <trkpt lat="43.57396" lon="1.35155">
        <ele>157</ele>
        <time>2015-01-22T11:55:35.000Z</time>
      </trkpt>
      <trkpt lat="43.57411" lon="1.35156">
        <ele>157</ele>
        <time>2015-01-22T11:55:40.000Z</time>
      </trkpt>
      <trkpt lat="43.57431" lon="1.35157">
        <ele>157</ele>
        <time>2015-01-22T11:55:47.000Z</time>
      </trkpt>
      <trkpt lat="43.57448" lon="1.35162">
        <ele>157</ele>
        <time>2015-01-22T11:55:53.000Z</time>
      </trkpt>
      <trkpt lat="43.57466" lon="1.35165">
        <ele>157.80000305176</ele>
        <time>2015-01-22T11:56:00.000Z</time>
      </trkpt>
      <trkpt lat="43.57469" lon="1.35166">
        <ele>158</ele>
        <time>2015-01-22T11:56:01.000Z</time>
      </trkpt>
      <trkpt lat="43.57484" lon="1.35177">
        <ele>158.19999694824</ele>
        <time>2015-01-22T11:56:07.000Z</time>
      </trkpt>
      <trkpt lat="43.57501" lon="1.35189">
        <ele>158.60000610352</ele>
        <time>2015-01-22T11:56:14.000Z</time>
      </trkpt>
      <trkpt lat="43.57504" lon="1.35191">
        <ele>158.60000610352</ele>
        <time>2015-01-22T11:56:15.000Z</time>
      </trkpt>
      <trkpt lat="43.57516" lon="1.35202">
        <ele>158.60000610352</ele>
        <time>2015-01-22T11:56:20.000Z</time>
      </trkpt>
      <trkpt lat="43.57529" lon="1.35216">
        <ele>157.80000305176</ele>
        <time>2015-01-22T11:56:26.000Z</time>
      </trkpt>
      <trkpt lat="43.57538" lon="1.35229">
        <ele>157</ele>
        <time>2015-01-22T11:56:31.000Z</time>
      </trkpt>
      <trkpt lat="43.57546" lon="1.35248">
        <ele>157</ele>
        <time>2015-01-22T11:56:37.000Z</time>
      </trkpt>
      <trkpt lat="43.57554" lon="1.35267">
        <ele>157</ele>
        <time>2015-01-22T11:56:43.000Z</time>
      </trkpt>
      <trkpt lat="43.57558" lon="1.35289">
        <ele>157</ele>
        <time>2015-01-22T11:56:49.000Z</time>
      </trkpt>
      <trkpt lat="43.57559" lon="1.35307">
        <ele>157</ele>
        <time>2015-01-22T11:56:54.000Z</time>
      </trkpt>
      <trkpt lat="43.57561" lon="1.35324">
        <ele>158.19999694824</ele>
        <time>2015-01-22T11:56:59.000Z</time>
      </trkpt>
      <trkpt lat="43.57565" lon="1.3534">
        <ele>160.19999694824</ele>
        <time>2015-01-22T11:57:04.000Z</time>
      </trkpt>
      <trkpt lat="43.57566" lon="1.35362">
        <ele>162.60000610352</ele>
        <time>2015-01-22T11:57:10.000Z</time>
      </trkpt>
      <trkpt lat="43.57564" lon="1.35383">
        <ele>162.39999389648</ele>
        <time>2015-01-22T11:57:16.000Z</time>
      </trkpt>
      <trkpt lat="43.57564" lon="1.35406">
        <ele>162.19999694824</ele>
        <time>2015-01-22T11:57:22.000Z</time>
      </trkpt>
      <trkpt lat="43.57565" lon="1.35429">
        <ele>161.19999694824</ele>
        <time>2015-01-22T11:57:28.000Z</time>
      </trkpt>
      <trkpt lat="43.57565" lon="1.35455">
        <ele>160.39999389648</ele>
        <time>2015-01-22T11:57:35.000Z</time>
      </trkpt>
      <trkpt lat="43.57565" lon="1.35481">
        <ele>160.39999389648</ele>
        <time>2015-01-22T11:57:42.000Z</time>
      </trkpt>
      <trkpt lat="43.57565" lon="1.35503">
        <ele>159.60000610352</ele>
        <time>2015-01-22T11:57:48.000Z</time>
      </trkpt>
      <trkpt lat="43.57566" lon="1.35529">
        <ele>158.80000305176</ele>
        <time>2015-01-22T11:57:55.000Z</time>
      </trkpt>
      <trkpt lat="43.57567" lon="1.35555">
        <ele>158.80000305176</ele>
        <time>2015-01-22T11:58:02.000Z</time>
      </trkpt>
      <trkpt lat="43.57567" lon="1.35577">
        <ele>159</ele>
        <time>2015-01-22T11:58:08.000Z</time>
      </trkpt>
      <trkpt lat="43.57567" lon="1.35599">
        <ele>159.19999694824</ele>
        <time>2015-01-22T11:58:14.000Z</time>
      </trkpt>
      <trkpt lat="43.57566" lon="1.35618">
        <ele>159.19999694824</ele>
        <time>2015-01-22T11:58:19.000Z</time>
      </trkpt>
      <trkpt lat="43.57565" lon="1.35639">
        <ele>159.19999694824</ele>
        <time>2015-01-22T11:58:25.000Z</time>
      </trkpt>
      <trkpt lat="43.57566" lon="1.35664">
        <ele>158.80000305176</ele>
        <time>2015-01-22T11:58:32.000Z</time>
      </trkpt>
      <trkpt lat="43.57564" lon="1.35688">
        <ele>157.80000305176</ele>
        <time>2015-01-22T11:58:39.000Z</time>
      </trkpt>
      <trkpt lat="43.57555" lon="1.35711">
        <ele>157.39999389648</ele>
        <time>2015-01-22T11:58:46.000Z</time>
      </trkpt>
      <trkpt lat="43.57553" lon="1.35731">
        <ele>157.39999389648</ele>
        <time>2015-01-22T11:58:52.000Z</time>
      </trkpt>
      <trkpt lat="43.57553" lon="1.35751">
        <ele>157.39999389648</ele>
        <time>2015-01-22T11:58:58.000Z</time>
      </trkpt>
      <trkpt lat="43.57556" lon="1.35757">
        <ele>157.39999389648</ele>
        <time>2015-01-22T11:59:00.000Z</time>
      </trkpt>
      <trkpt lat="43.5756" lon="1.3576">
        <ele>157.60000610352</ele>
        <time>2015-01-22T11:59:02.000Z</time>
      </trkpt>
      <trkpt lat="43.57574" lon="1.35772">
        <ele>157.60000610352</ele>
        <time>2015-01-22T11:59:08.000Z</time>
      </trkpt>
      <trkpt lat="43.57585" lon="1.35781">
        <ele>157.80000305176</ele>
        <time>2015-01-22T11:59:13.000Z</time>
      </trkpt>
      <trkpt lat="43.57601" lon="1.35795">
        <ele>158</ele>
        <time>2015-01-22T11:59:21.000Z</time>
      </trkpt>
      <trkpt lat="43.57611" lon="1.35805">
        <ele>158</ele>
        <time>2015-01-22T11:59:26.000Z</time>
      </trkpt>
      <trkpt lat="43.57623" lon="1.35815">
        <ele>158</ele>
        <time>2015-01-22T11:59:32.000Z</time>
      </trkpt>
      <trkpt lat="43.57635" lon="1.35827">
        <ele>157.80000305176</ele>
        <time>2015-01-22T11:59:38.000Z</time>
      </trkpt>
      <trkpt lat="43.57646" lon="1.35837">
        <ele>157.80000305176</ele>
        <time>2015-01-22T11:59:43.000Z</time>
      </trkpt>
      <trkpt lat="43.5765" lon="1.3584">
        <ele>157.60000610352</ele>
        <time>2015-01-22T11:59:45.000Z</time>
      </trkpt>
      <trkpt lat="43.57658" lon="1.35847">
        <ele>157.60000610352</ele>
        <time>2015-01-22T11:59:49.000Z</time>
      </trkpt>
      <trkpt lat="43.57671" lon="1.35858">
        <ele>157.39999389648</ele>
        <time>2015-01-22T11:59:55.000Z</time>
      </trkpt>
      <trkpt lat="43.57687" lon="1.3587">
        <ele>157.39999389648</ele>
        <time>2015-01-22T12:00:02.000Z</time>
      </trkpt>
      <trkpt lat="43.57703" lon="1.35882">
        <ele>157.39999389648</ele>
        <time>2015-01-22T12:00:09.000Z</time>
      </trkpt>
      <trkpt lat="43.5772" lon="1.35891">
        <ele>157.39999389648</ele>
        <time>2015-01-22T12:00:15.000Z</time>
      </trkpt>
      <trkpt lat="43.57732" lon="1.35901">
        <ele>157.60000610352</ele>
        <time>2015-01-22T12:00:20.000Z</time>
      </trkpt>
      <trkpt lat="43.57744" lon="1.35909">
        <ele>157.60000610352</ele>
        <time>2015-01-22T12:00:25.000Z</time>
      </trkpt>
      <trkpt lat="43.57761" lon="1.35921">
        <ele>157.60000610352</ele>
        <time>2015-01-22T12:00:32.000Z</time>
      </trkpt>
      <trkpt lat="43.57775" lon="1.35931">
        <ele>157.80000305176</ele>
        <time>2015-01-22T12:00:39.000Z</time>
      </trkpt>
      <trkpt lat="43.57785" lon="1.3594">
        <ele>158</ele>
        <time>2015-01-22T12:00:44.000Z</time>
      </trkpt>
      <trkpt lat="43.57796" lon="1.35948">
        <ele>158</ele>
        <time>2015-01-22T12:00:49.000Z</time>
      </trkpt>
      <trkpt lat="43.5781" lon="1.35958">
        <ele>158.19999694824</ele>
        <time>2015-01-22T12:00:55.000Z</time>
      </trkpt>
      <trkpt lat="43.57823" lon="1.3597">
        <ele>158.39999389648</ele>
        <time>2015-01-22T12:01:01.000Z</time>
      </trkpt>
      <trkpt lat="43.57837" lon="1.35979">
        <ele>158.60000610352</ele>
        <time>2015-01-22T12:01:08.000Z</time>
      </trkpt>
      <trkpt lat="43.57851" lon="1.35976">
        <ele>158.80000305176</ele>
        <time>2015-01-22T12:01:12.000Z</time>
      </trkpt>
      <trkpt lat="43.57864" lon="1.35967">
        <ele>158.60000610352</ele>
        <time>2015-01-22T12:01:16.000Z</time>
      </trkpt>
      <trkpt lat="43.57879" lon="1.35949">
        <ele>158.19999694824</ele>
        <time>2015-01-22T12:01:23.000Z</time>
      </trkpt>
      <trkpt lat="43.5789" lon="1.35933">
        <ele>157.80000305176</ele>
        <time>2015-01-22T12:01:29.000Z</time>
      </trkpt>
      <trkpt lat="43.57899" lon="1.3592">
        <ele>158.60000610352</ele>
        <time>2015-01-22T12:01:34.000Z</time>
      </trkpt>
      <trkpt lat="43.5791" lon="1.35907">
        <ele>159.39999389648</ele>
        <time>2015-01-22T12:01:40.000Z</time>
      </trkpt>
      <trkpt lat="43.57915" lon="1.35915">
        <ele>159.60000610352</ele>
        <time>2015-01-22T12:01:44.000Z</time>
      </trkpt>
      <trkpt lat="43.57915" lon="1.35918">
        <ele>159.60000610352</ele>
        <time>2015-01-22T12:01:45.000Z</time>
      </trkpt>
      <trkpt lat="43.57917" lon="1.35928">
        <ele>159.60000610352</ele>
        <time>2015-01-22T12:01:48.000Z</time>
      </trkpt>
      <trkpt lat="43.57924" lon="1.35948">
        <ele>159.80000305176</ele>
        <time>2015-01-22T12:01:54.000Z</time>
      </trkpt>
      <trkpt lat="43.57929" lon="1.35968">
        <ele>159.80000305176</ele>
        <time>2015-01-22T12:02:00.000Z</time>
      </trkpt>
      <trkpt lat="43.57936" lon="1.35993">
        <ele>159.80000305176</ele>
        <time>2015-01-22T12:02:07.000Z</time>
      </trkpt>
      <trkpt lat="43.57937" lon="1.35996">
        <ele>159.80000305176</ele>
        <time>2015-01-22T12:02:08.000Z</time>
      </trkpt>
      <trkpt lat="43.57946" lon="1.36016">
        <ele>159.19999694824</ele>
        <time>2015-01-22T12:02:14.000Z</time>
      </trkpt>
      <trkpt lat="43.5795" lon="1.36034">
        <ele>158.80000305176</ele>
        <time>2015-01-22T12:02:19.000Z</time>
      </trkpt>
      <trkpt lat="43.57958" lon="1.36056">
        <ele>158.19999694824</ele>
        <time>2015-01-22T12:02:26.000Z</time>
      </trkpt>
      <trkpt lat="43.57964" lon="1.36069">
        <ele>158</ele>
        <time>2015-01-22T12:02:30.000Z</time>
      </trkpt>
      <trkpt lat="43.57973" lon="1.3609">
        <ele>158</ele>
        <time>2015-01-22T12:02:36.000Z</time>
      </trkpt>
      <trkpt lat="43.5798" lon="1.36111">
        <ele>157.80000305176</ele>
        <time>2015-01-22T12:02:42.000Z</time>
      </trkpt>
      <trkpt lat="43.57985" lon="1.36124">
        <ele>157.60000610352</ele>
        <time>2015-01-22T12:02:46.000Z</time>
      </trkpt>
      <trkpt lat="43.57992" lon="1.3614">
        <ele>157.19999694824</ele>
        <time>2015-01-22T12:02:51.000Z</time>
      </trkpt>
      <trkpt lat="43.58001" lon="1.36164">
        <ele>156.80000305176</ele>
        <time>2015-01-22T12:02:58.000Z</time>
      </trkpt>
      <trkpt lat="43.58008" lon="1.36187">
        <ele>156.60000610352</ele>
        <time>2015-01-22T12:03:05.000Z</time>
      </trkpt>
      <trkpt lat="43.58008" lon="1.36204">
        <ele>156.39999389648</ele>
        <time>2015-01-22T12:03:10.000Z</time>
      </trkpt>
      <trkpt lat="43.58003" lon="1.36229">
        <ele>156.19999694824</ele>
        <time>2015-01-22T12:03:17.000Z</time>
      </trkpt>
      <trkpt lat="43.58006" lon="1.36243">
        <ele>156.19999694824</ele>
        <time>2015-01-22T12:03:21.000Z</time>
      </trkpt>
      <trkpt lat="43.58013" lon="1.36252">
        <ele>156.39999389648</ele>
        <time>2015-01-22T12:03:25.000Z</time>
      </trkpt>
      <trkpt lat="43.58025" lon="1.36261">
        <ele>156.39999389648</ele>
        <time>2015-01-22T12:03:30.000Z</time>
      </trkpt>
      <trkpt lat="43.58034" lon="1.36271">
        <ele>156.60000610352</ele>
        <time>2015-01-22T12:03:34.000Z</time>
      </trkpt>
      <trkpt lat="43.58037" lon="1.36288">
        <ele>157</ele>
        <time>2015-01-22T12:03:39.000Z</time>
      </trkpt>
      <trkpt lat="43.5804" lon="1.36309">
        <ele>157.19999694824</ele>
        <time>2015-01-22T12:03:45.000Z</time>
      </trkpt>
      <trkpt lat="43.58044" lon="1.36328">
        <ele>157.39999389648</ele>
        <time>2015-01-22T12:03:50.000Z</time>
      </trkpt>
      <trkpt lat="43.58048" lon="1.36347">
        <ele>157.80000305176</ele>
        <time>2015-01-22T12:03:55.000Z</time>
      </trkpt>
      <trkpt lat="43.58052" lon="1.36369">
        <ele>158.80000305176</ele>
        <time>2015-01-22T12:04:01.000Z</time>
      </trkpt>
      <trkpt lat="43.58057" lon="1.36391">
        <ele>159.80000305176</ele>
        <time>2015-01-22T12:04:07.000Z</time>
      </trkpt>
      <trkpt lat="43.58062" lon="1.36408">
        <ele>159.60000610352</ele>
        <time>2015-01-22T12:04:12.000Z</time>
      </trkpt>
      <trkpt lat="43.58068" lon="1.3643">
        <ele>158.60000610352</ele>
        <time>2015-01-22T12:04:18.000Z</time>
      </trkpt>
      <trkpt lat="43.58072" lon="1.36448">
        <ele>157.80000305176</ele>
        <time>2015-01-22T12:04:23.000Z</time>
      </trkpt>
      <trkpt lat="43.58077" lon="1.3647">
        <ele>157.19999694824</ele>
        <time>2015-01-22T12:04:29.000Z</time>
      </trkpt>
      <trkpt lat="43.58082" lon="1.36491">
        <ele>157</ele>
        <time>2015-01-22T12:04:35.000Z</time>
      </trkpt>
      <trkpt lat="43.58087" lon="1.36512">
        <ele>157.19999694824</ele>
        <time>2015-01-22T12:04:41.000Z</time>
      </trkpt>
      <trkpt lat="43.58091" lon="1.36529">
        <ele>157.60000610352</ele>
        <time>2015-01-22T12:04:46.000Z</time>
      </trkpt>
      <trkpt lat="43.58087" lon="1.36541">
        <ele>158</ele>
        <time>2015-01-22T12:04:50.000Z</time>
      </trkpt>
      <trkpt lat="43.58081" lon="1.3655">
        <ele>157.80000305176</ele>
        <time>2015-01-22T12:04:53.000Z</time>
      </trkpt>
      <trkpt lat="43.58077" lon="1.36554">
        <ele>157.19999694824</ele>
        <time>2015-01-22T12:04:55.000Z</time>
      </trkpt>
      <trkpt lat="43.58066" lon="1.3657">
        <ele>156</ele>
        <time>2015-01-22T12:05:01.000Z</time>
      </trkpt>
      <trkpt lat="43.58054" lon="1.36586">
        <ele>155.39999389648</ele>
        <time>2015-01-22T12:05:07.000Z</time>
      </trkpt>
      <trkpt lat="43.58042" lon="1.36602">
        <ele>155.60000610352</ele>
        <time>2015-01-22T12:05:13.000Z</time>
      </trkpt>
      <trkpt lat="43.5803" lon="1.36617">
        <ele>156.39999389648</ele>
        <time>2015-01-22T12:05:19.000Z</time>
      </trkpt>
      <trkpt lat="43.58028" lon="1.3662">
        <ele>156.39999389648</ele>
        <time>2015-01-22T12:05:20.000Z</time>
      </trkpt>
      <trkpt lat="43.58016" lon="1.36636">
        <ele>157.39999389648</ele>
        <time>2015-01-22T12:05:26.000Z</time>
      </trkpt>
      <trkpt lat="43.58003" lon="1.36654">
        <ele>157.39999389648</ele>
        <time>2015-01-22T12:05:33.000Z</time>
      </trkpt>
      <trkpt lat="43.5799" lon="1.36672">
        <ele>157</ele>
        <time>2015-01-22T12:05:40.000Z</time>
      </trkpt>
      <trkpt lat="43.5798" lon="1.36688">
        <ele>156.60000610352</ele>
        <time>2015-01-22T12:05:46.000Z</time>
      </trkpt>
      <trkpt lat="43.57982" lon="1.36701">
        <ele>157</ele>
        <time>2015-01-22T12:05:50.000Z</time>
      </trkpt>
      <trkpt lat="43.57981" lon="1.36723">
        <ele>157.39999389648</ele>
        <time>2015-01-22T12:05:56.000Z</time>
      </trkpt>
      <trkpt lat="43.57976" lon="1.3674">
        <ele>157.39999389648</ele>
        <time>2015-01-22T12:06:01.000Z</time>
      </trkpt>
      <trkpt lat="43.57978" lon="1.36758">
        <ele>157.60000610352</ele>
        <time>2015-01-22T12:06:06.000Z</time>
      </trkpt>
      <trkpt lat="43.57983" lon="1.36775">
        <ele>157.80000305176</ele>
        <time>2015-01-22T12:06:11.000Z</time>
      </trkpt>
      <trkpt lat="43.5799" lon="1.36793">
        <ele>158</ele>
        <time>2015-01-22T12:06:16.000Z</time>
      </trkpt>
      <trkpt lat="43.57995" lon="1.36808">
        <ele>158.39999389648</ele>
        <time>2015-01-22T12:06:20.000Z</time>
      </trkpt>
      <trkpt lat="43.58004" lon="1.3683">
        <ele>158</ele>
        <time>2015-01-22T12:06:26.000Z</time>
      </trkpt>
      <trkpt lat="43.5801" lon="1.36848">
        <ele>157.19999694824</ele>
        <time>2015-01-22T12:06:31.000Z</time>
      </trkpt>
      <trkpt lat="43.58015" lon="1.36863">
        <ele>156.60000610352</ele>
        <time>2015-01-22T12:06:35.000Z</time>
      </trkpt>
      <trkpt lat="43.5802" lon="1.36881">
        <ele>155.80000305176</ele>
        <time>2015-01-22T12:06:40.000Z</time>
      </trkpt>
      <trkpt lat="43.58026" lon="1.36908">
        <ele>155.39999389648</ele>
        <time>2015-01-22T12:06:47.000Z</time>
      </trkpt>
      <trkpt lat="43.58028" lon="1.36928">
        <ele>156.19999694824</ele>
        <time>2015-01-22T12:06:52.000Z</time>
      </trkpt>
      <trkpt lat="43.58031" lon="1.36951">
        <ele>157</ele>
        <time>2015-01-22T12:06:58.000Z</time>
      </trkpt>
      <trkpt lat="43.58031" lon="1.36971">
        <ele>157.60000610352</ele>
        <time>2015-01-22T12:07:03.000Z</time>
      </trkpt>
      <trkpt lat="43.58032" lon="1.36994">
        <ele>158</ele>
        <time>2015-01-22T12:07:09.000Z</time>
      </trkpt>
      <trkpt lat="43.58033" lon="1.37015">
        <ele>158.19999694824</ele>
        <time>2015-01-22T12:07:15.000Z</time>
      </trkpt>
      <trkpt lat="43.58038" lon="1.37033">
        <ele>158.39999389648</ele>
        <time>2015-01-22T12:07:20.000Z</time>
      </trkpt>
      <trkpt lat="43.58034" lon="1.37048">
        <ele>158.60000610352</ele>
        <time>2015-01-22T12:07:24.000Z</time>
      </trkpt>
      <trkpt lat="43.5803" lon="1.37069">
        <ele>159</ele>
        <time>2015-01-22T12:07:29.000Z</time>
      </trkpt>
      <trkpt lat="43.5803" lon="1.37093">
        <ele>158.60000610352</ele>
        <time>2015-01-22T12:07:35.000Z</time>
      </trkpt>
      <trkpt lat="43.58029" lon="1.37117">
        <ele>158</ele>
        <time>2015-01-22T12:07:41.000Z</time>
      </trkpt>
      <trkpt lat="43.58028" lon="1.37139">
        <ele>157.39999389648</ele>
        <time>2015-01-22T12:07:47.000Z</time>
      </trkpt>
      <trkpt lat="43.5803" lon="1.37162">
        <ele>157.19999694824</ele>
        <time>2015-01-22T12:07:53.000Z</time>
      </trkpt>
      <trkpt lat="43.58032" lon="1.3718">
        <ele>157.60000610352</ele>
        <time>2015-01-22T12:07:58.000Z</time>
      </trkpt>
      <trkpt lat="43.58036" lon="1.37197">
        <ele>158</ele>
        <time>2015-01-22T12:08:03.000Z</time>
      </trkpt>
      <trkpt lat="43.58042" lon="1.37218">
        <ele>158.39999389648</ele>
        <time>2015-01-22T12:08:09.000Z</time>
      </trkpt>
      <trkpt lat="43.58047" lon="1.37239">
        <ele>158.60000610352</ele>
        <time>2015-01-22T12:08:15.000Z</time>
      </trkpt>
      <trkpt lat="43.58052" lon="1.37261">
        <ele>158.19999694824</ele>
        <time>2015-01-22T12:08:21.000Z</time>
      </trkpt>
      <trkpt lat="43.58057" lon="1.37283">
        <ele>157.60000610352</ele>
        <time>2015-01-22T12:08:27.000Z</time>
      </trkpt>
      <trkpt lat="43.58063" lon="1.373">
        <ele>157</ele>
        <time>2015-01-22T12:08:32.000Z</time>
      </trkpt>
      <trkpt lat="43.58068" lon="1.37317">
        <ele>156.60000610352</ele>
        <time>2015-01-22T12:08:37.000Z</time>
      </trkpt>
      <trkpt lat="43.58073" lon="1.3734">
        <ele>157</ele>
        <time>2015-01-22T12:08:43.000Z</time>
      </trkpt>
      <trkpt lat="43.58077" lon="1.37358">
        <ele>157.19999694824</ele>
        <time>2015-01-22T12:08:48.000Z</time>
      </trkpt>
      <trkpt lat="43.58083" lon="1.37381">
        <ele>157.60000610352</ele>
        <time>2015-01-22T12:08:54.000Z</time>
      </trkpt>
      <trkpt lat="43.58087" lon="1.37404">
        <ele>157.39999389648</ele>
        <time>2015-01-22T12:09:00.000Z</time>
      </trkpt>
      <trkpt lat="43.58091" lon="1.37423">
        <ele>157.60000610352</ele>
        <time>2015-01-22T12:09:05.000Z</time>
      </trkpt>
      <trkpt lat="43.58097" lon="1.37446">
        <ele>157.80000305176</ele>
        <time>2015-01-22T12:09:11.000Z</time>
      </trkpt>
      <trkpt lat="43.581" lon="1.37456">
        <ele>158</ele>
        <time>2015-01-22T12:09:14.000Z</time>
      </trkpt>
      <trkpt lat="43.58103" lon="1.37459">
        <ele>158</ele>
        <time>2015-01-22T12:09:15.000Z</time>
      </trkpt>
      <trkpt lat="43.58111" lon="1.37464">
        <ele>157.80000305176</ele>
        <time>2015-01-22T12:09:18.000Z</time>
      </trkpt>
      <trkpt lat="43.58116" lon="1.37468">
        <ele>157.80000305176</ele>
        <time>2015-01-22T12:09:20.000Z</time>
      </trkpt>
      <trkpt lat="43.58125" lon="1.37483">
        <ele>157.80000305176</ele>
        <time>2015-01-22T12:09:25.000Z</time>
      </trkpt>
      <trkpt lat="43.5813" lon="1.37496">
        <ele>157.80000305176</ele>
        <time>2015-01-22T12:09:29.000Z</time>
      </trkpt>
      <trkpt lat="43.58129" lon="1.375">
        <ele>157.80000305176</ele>
        <time>2015-01-22T12:09:30.000Z</time>
      </trkpt>
      <trkpt lat="43.58125" lon="1.3751">
        <ele>158</ele>
        <time>2015-01-22T12:09:33.000Z</time>
      </trkpt>
      <trkpt lat="43.58121" lon="1.37515">
        <ele>158</ele>
        <time>2015-01-22T12:09:35.000Z</time>
      </trkpt>
      <trkpt lat="43.58109" lon="1.37526">
        <ele>158</ele>
        <time>2015-01-22T12:09:41.000Z</time>
      </trkpt>
      <trkpt lat="43.58102" lon="1.37537">
        <ele>158</ele>
        <time>2015-01-22T12:09:45.000Z</time>
      </trkpt>
      <trkpt lat="43.58101" lon="1.37541">
        <ele>158</ele>
        <time>2015-01-22T12:09:46.000Z</time>
      </trkpt>
      <trkpt lat="43.58096" lon="1.37564">
        <ele>158</ele>
        <time>2015-01-22T12:09:52.000Z</time>
      </trkpt>
      <trkpt lat="43.58093" lon="1.37586">
        <ele>158.19999694824</ele>
        <time>2015-01-22T12:09:58.000Z</time>
      </trkpt>
      <trkpt lat="43.58088" lon="1.37613">
        <ele>158.60000610352</ele>
        <time>2015-01-22T12:10:05.000Z</time>
      </trkpt>
      <trkpt lat="43.58085" lon="1.37632">
        <ele>158.80000305176</ele>
        <time>2015-01-22T12:10:10.000Z</time>
      </trkpt>
      <trkpt lat="43.58081" lon="1.37655">
        <ele>159.19999694824</ele>
        <time>2015-01-22T12:10:16.000Z</time>
      </trkpt>
      <trkpt lat="43.58075" lon="1.37679">
        <ele>159</ele>
        <time>2015-01-22T12:10:23.000Z</time>
      </trkpt>
      <trkpt lat="43.58074" lon="1.37683">
        <ele>159</ele>
        <time>2015-01-22T12:10:24.000Z</time>
      </trkpt>
      <trkpt lat="43.58064" lon="1.37705">
        <ele>158.60000610352</ele>
        <time>2015-01-22T12:10:31.000Z</time>
      </trkpt>
      <trkpt lat="43.58063" lon="1.37708">
        <ele>158.60000610352</ele>
        <time>2015-01-22T12:10:32.000Z</time>
      </trkpt>
      <trkpt lat="43.58052" lon="1.37727">
        <ele>158.19999694824</ele>
        <time>2015-01-22T12:10:38.000Z</time>
      </trkpt>
      <trkpt lat="43.58045" lon="1.37737">
        <ele>158</ele>
        <time>2015-01-22T12:10:42.000Z</time>
      </trkpt>
      <trkpt lat="43.5804" lon="1.37743">
        <ele>158.19999694824</ele>
        <time>2015-01-22T12:10:44.000Z</time>
      </trkpt>
      <trkpt lat="43.58027" lon="1.37756">
        <ele>158.19999694824</ele>
        <time>2015-01-22T12:10:50.000Z</time>
      </trkpt>
      <trkpt lat="43.58012" lon="1.37767">
        <ele>158</ele>
        <time>2015-01-22T12:10:56.000Z</time>
      </trkpt>
      <trkpt lat="43.57999" lon="1.37775">
        <ele>158.19999694824</ele>
        <time>2015-01-22T12:11:01.000Z</time>
      </trkpt>
      <trkpt lat="43.57984" lon="1.37787">
        <ele>158.19999694824</ele>
        <time>2015-01-22T12:11:07.000Z</time>
      </trkpt>
      <trkpt lat="43.57966" lon="1.37797">
        <ele>157.80000305176</ele>
        <time>2015-01-22T12:11:14.000Z</time>
      </trkpt>
      <trkpt lat="43.57949" lon="1.3781">
        <ele>157.19999694824</ele>
        <time>2015-01-22T12:11:21.000Z</time>
      </trkpt>
      <trkpt lat="43.57936" lon="1.3782">
        <ele>157</ele>
        <time>2015-01-22T12:11:27.000Z</time>
      </trkpt>
    </trkseg>
  </trk>
</gpx>